Wetterdaten: Mittwoch, 21.12.2022
Datum Zeit Temp. Aussen Temp. o. S. Temp +5cm Feuchte Auss Luftdruck Regen Sonnenschein Regendauer Solar Windben Empfang
21.12.2022 00:00 9,5 C 8,9 C 6,1 C 99 % 1010,7 hPa 0,0 l/m 0 min 2 min 0 W/m 0,0 km/h (0 Bft) 93,62 %
21.12.2022 00:02 9,5 C 8,9 C 6,1 C 99 % 1010,7 hPa 0,0 l/m 0 min 2 min 0 W/m 0,0 km/h (0 Bft) 88,89 %
21.12.2022 00:04 9,5 C 8,9 C 6,1 C 99 % 1010,8 hPa 0,0 l/m 0 min 2 min 0 W/m 0,0 km/h (0 Bft) 97,14 %
21.12.2022 00:08 9,5 C 8,9 C 6,7 C 99 % 1010,8 hPa 0,0 l/m 0 min 0 min 0 W/m 0,0 km/h (0 Bft) 94,62 %
21.12.2022 00:10 9,5 C 8,9 C 6,7 C 99 % 1010,8 hPa 0,0 l/m 0 min 0 min 0 W/m 0,0 km/h (0 Bft) 93,62 %
21.12.2022 00:12 9,5 C 8,9 C 6,7 C 99 % 1010,8 hPa 0,0 l/m 0 min 0 min 0 W/m 0,0 km/h (0 Bft) 91,49 %
21.12.2022 00:14 9,5 C 8,9 C 6,1 C 99 % 1010,9 hPa 0,0 l/m 0 min 0 min 0 W/m 0,0 km/h (0 Bft) 95,74 %
21.12.2022 00:16 9,5 C 8,9 C 6,7 C 99 % 1010,8 hPa 0,0 l/m 0 min 0 min 0 W/m 3,2 km/h (1 Bft) 93,62 %
21.12.2022 00:18 9,5 C 8,9 C 6,7 C 99 % 1010,8 hPa 0,0 l/m 0 min 0 min 0 W/m 0,0 km/h (0 Bft) 95,74 %
21.12.2022 00:20 9,5 C 8,9 C 6,1 C 99 % 1010,9 hPa 0,0 l/m 0 min 0 min 0 W/m 3,2 km/h (1 Bft) 95,65 %
21.12.2022 00:22 9,5 C 8,9 C 6,7 C 99 % 1010,9 hPa 0,0 l/m 0 min 0 min 0 W/m 3,2 km/h (1 Bft) 95,74 %
21.12.2022 00:24 9,5 C 8,9 C 6,7 C 99 % 1011,0 hPa 0,0 l/m 0 min 0 min 0 W/m 3,2 km/h (1 Bft) 95,74 %
21.12.2022 00:26 9,5 C 8,9 C 6,7 C 99 % 1011,0 hPa 0,0 l/m 0 min 0 min 0 W/m 0,0 km/h (0 Bft) 95,74 %
21.12.2022 00:28 9,5 C 8,9 C 6,7 C 99 % 1011,0 hPa 0,0 l/m 0 min 0 min 0 W/m 3,2 km/h (1 Bft) 97,87 %
21.12.2022 00:30 9,5 C 8,9 C 6,7 C 99 % 1010,9 hPa 0,0 l/m 0 min 0 min 0 W/m 0,0 km/h (0 Bft) 97,87 %
21.12.2022 00:32 9,5 C 8,9 C 6,7 C 99 % 1011,0 hPa 0,0 l/m 0 min 0 min 0 W/m 0,0 km/h (0 Bft) 97,83 %
21.12.2022 00:34 9,5 C 8,9 C 6,7 C 99 % 1011,0 hPa 0,0 l/m 0 min 0 min 0 W/m 3,2 km/h (1 Bft) 97,87 %
21.12.2022 00:36 9,5 C 8,9 C 6,7 C 99 % 1011,1 hPa 0,0 l/m 0 min 0 min 0 W/m 3,2 km/h (1 Bft) 95,74 %
21.12.2022 00:38 9,4 C 8,9 C 6,7 C 99 % 1011,1 hPa 0,0 l/m 0 min 0 min 0 W/m 6,4 km/h (2 Bft) 97,87 %
21.12.2022 00:40 9,4 C 8,9 C 6,7 C 99 % 1011,0 hPa 0,0 l/m 0 min 0 min 0 W/m 6,4 km/h (2 Bft) 96,36 %
21.12.2022 00:42 9,4 C 8,9 C 6,7 C 99 % 1011,0 hPa 0,0 l/m 0 min 0 min 0 W/m 3,2 km/h (1 Bft) 100,00 %
21.12.2022 00:44 9,4 C 8,9 C 6,7 C 99 % 1010,9 hPa 0,0 l/m 0 min 0 min 0 W/m 6,4 km/h (2 Bft) 100,00 %
21.12.2022 00:46 9,4 C 8,9 C 6,7 C 99 % 1011,0 hPa 0,0 l/m 0 min 0 min 0 W/m 6,4 km/h (2 Bft) 97,87 %
21.12.2022 00:48 9,5 C 8,9 C 6,7 C 99 % 1011,0 hPa 0,0 l/m 0 min 0 min 0 W/m 3,2 km/h (1 Bft) 100,00 %
21.12.2022 00:50 9,4 C 8,9 C 6,7 C 99 % 1011,0 hPa 0,0 l/m 0 min 0 min 0 W/m 6,4 km/h (2 Bft) 100,00 %
21.12.2022 00:52 9,5 C 8,9 C 6,7 C 99 % 1011,1 hPa 0,0 l/m 0 min 0 min 0 W/m 6,4 km/h (2 Bft) 100,00 %
21.12.2022 00:54 9,4 C 8,9 C 6,7 C 99 % 1011,1 hPa 0,0 l/m 0 min 0 min 0 W/m 3,2 km/h (1 Bft) 100,00 %
21.12.2022 00:56 9,5 C 8,9 C 6,7 C 99 % 1011,0 hPa 0,0 l/m 0 min 0 min 0 W/m 16,1 km/h (3 Bft) 100,00 %
21.12.2022 00:58 9,5 C 8,9 C 6,7 C 99 % 1011,0 hPa 0,0 l/m 0 min 0 min 0 W/m 3,2 km/h (1 Bft) 100,00 %
21.12.2022 01:00 9,5 C 8,9 C 6,7 C 99 % 1011,0 hPa 0,0 l/m 0 min 0 min 0 W/m 0,0 km/h (0 Bft) 97,87 %
21.12.2022 01:02 9,5 C 8,9 C 6,7 C 99 % 1011,0 hPa 0,0 l/m 0 min 0 min 0 W/m 6,4 km/h (2 Bft) 97,87 %
21.12.2022 01:04 9,5 C 8,9 C 6,7 C 99 % 1011,0 hPa 0,0 l/m 0 min 0 min 0 W/m 3,2 km/h (1 Bft) 100,00 %
21.12.2022 01:06 9,5 C 8,9 C 6,7 C 99 % 1011,0 hPa 0,0 l/m 0 min 0 min 0 W/m 6,4 km/h (2 Bft) 100,00 %
21.12.2022 01:08 9,5 C 8,9 C 6,7 C 99 % 1011,0 hPa 0,0 l/m 0 min 0 min 0 W/m 3,2 km/h (1 Bft) 100,00 %
21.12.2022 01:10 9,5 C 8,9 C 6,7 C 99 % 1011,1 hPa 0,0 l/m 0 min 0 min 0 W/m 3,2 km/h (1 Bft) 100,00 %
21.12.2022 01:12 9,5 C 8,9 C 6,7 C 99 % 1011,1 hPa 0,0 l/m 0 min 0 min 0 W/m 0,0 km/h (0 Bft) 100,00 %
21.12.2022 01:14 9,5 C 8,9 C 6,7 C 99 % 1011,1 hPa 0,0 l/m 0 min 2 min 0 W/m 6,4 km/h (2 Bft) 100,00 %
21.12.2022 01:16 9,5 C 8,9 C 6,7 C 99 % 1011,1 hPa 0,0 l/m 0 min 2 min 0 W/m 3,2 km/h (1 Bft) 100,00 %
21.12.2022 01:18 9,5 C 8,3 C 6,7 C 99 % 1011,0 hPa 0,0 l/m 0 min 0 min 0 W/m 0,0 km/h (0 Bft) 100,00 %
21.12.2022 01:20 9,5 C 8,3 C 6,7 C 99 % 1011,1 hPa 0,0 l/m 0 min 0 min 0 W/m 3,2 km/h (1 Bft) 100,00 %
21.12.2022 01:22 9,4 C 8,3 C 6,7 C 99 % 1011,1 hPa 0,0 l/m 0 min 0 min 0 W/m 3,2 km/h (1 Bft) 100,00 %
21.12.2022 01:24 9,4 C 8,3 C 6,7 C 99 % 1011,1 hPa 0,0 l/m 0 min 0 min 0 W/m 0,0 km/h (0 Bft) 100,00 %
21.12.2022 01:26 9,4 C 8,3 C 6,7 C 99 % 1011,0 hPa 0,0 l/m 0 min 0 min 0 W/m 3,2 km/h (1 Bft) 100,00 %
21.12.2022 01:28 9,4 C 8,3 C 6,7 C 99 % 1011,0 hPa 0,0 l/m 0 min 0 min 0 W/m 0,0 km/h (0 Bft) 100,00 %
21.12.2022 01:30 9,4 C 8,3 C 6,7 C 99 % 1011,1 hPa 0,0 l/m 0 min 0 min 0 W/m 3,2 km/h (1 Bft) 100,00 %
21.12.2022 01:32 9,4 C 8,3 C 6,7 C 99 % 1011,0 hPa 0,0 l/m 0 min 0 min 0 W/m 0,0 km/h (0 Bft) 97,87 %
21.12.2022 01:34 9,4 C 8,3 C 6,7 C 99 % 1011,1 hPa 0,0 l/m 0 min 0 min 0 W/m 0,0 km/h (0 Bft) 100,00 %
21.12.2022 01:36 9,4 C 8,3 C 6,7 C 99 % 1011,1 hPa 0,0 l/m 0 min 0 min 0 W/m 0,0 km/h (0 Bft) 100,00 %
21.12.2022 01:38 9,4 C 8,3 C 6,7 C 99 % 1011,0 hPa 0,0 l/m 0 min 0 min 0 W/m 0,0 km/h (0 Bft) 100,00 %
21.12.2022 01:40 9,3 C 8,3 C 6,7 C 99 % 1011,1 hPa 0,0 l/m 0 min 0 min 0 W/m 0,0 km/h (0 Bft) 97,87 %
21.12.2022 01:42 9,3 C 8,3 C 6,7 C 99 % 1011,0 hPa 0,0 l/m 0 min 0 min 0 W/m 0,0 km/h (0 Bft) 100,00 %
21.12.2022 01:44 9,3 C 8,3 C 6,1 C 99 % 1011,0 hPa 0,0 l/m 0 min 0 min 0 W/m 0,0 km/h (0 Bft) 100,00 %
21.12.2022 01:46 9,3 C 8,3 C 6,1 C 99 % 1011,0 hPa 0,0 l/m 0 min 0 min 0 W/m 0,0 km/h (0 Bft) 97,87 %
21.12.2022 01:48 9,3 C 8,3 C 6,1 C 99 % 1011,0 hPa 0,0 l/m 0 min 0 min 0 W/m 0,0 km/h (0 Bft) 97,83 %
21.12.2022 01:50 9,3 C 8,3 C 6,1 C 99 % 1010,9 hPa 0,0 l/m 0 min 0 min 0 W/m 0,0 km/h (0 Bft) 95,74 %
21.12.2022 01:52 9,3 C 8,3 C 6,7 C 99 % 1010,9 hPa 0,0 l/m 0 min 0 min 0 W/m 0,0 km/h (0 Bft) 95,74 %
21.12.2022 01:54 9,3 C 8,3 C 6,7 C 99 % 1010,9 hPa 0,0 l/m 0 min 0 min 0 W/m 0,0 km/h (0 Bft) 93,62 %
21.12.2022 01:56 9,3 C 8,3 C 6,1 C 99 % 1011,0 hPa 0,0 l/m 0 min 0 min 0 W/m 0,0 km/h (0 Bft) 95,74 %
21.12.2022 01:58 9,3 C 8,3 C 6,1 C 99 % 1010,9 hPa 0,0 l/m 0 min 0 min 0 W/m 0,0 km/h (0 Bft) 93,62 %
21.12.2022 02:00 9,3 C 8,3 C 6,1 C 99 % 1011,0 hPa 0,0 l/m 0 min 2 min 0 W/m 0,0 km/h (0 Bft) 95,74 %
21.12.2022 02:02 9,3 C 8,3 C 6,1 C 99 % 1011,0 hPa 0,0 l/m 0 min 2 min 0 W/m 0,0 km/h (0 Bft) 95,65 %
21.12.2022 02:04 9,3 C 8,3 C 6,1 C 99 % 1011,0 hPa 0,0 l/m 0 min 2 min 0 W/m 0,0 km/h (0 Bft) 95,74 %
21.12.2022 02:06 9,3 C 8,3 C 6,1 C 99 % 1011,1 hPa 0,0 l/m 0 min 2 min 0 W/m 0,0 km/h (0 Bft) 96,61 %
21.12.2022 02:08 9,3 C 8,3 C 6,1 C 99 % 1011,1 hPa 0,0 l/m 0 min 0 min 0 W/m 0,0 km/h (0 Bft) 94,29 %
21.12.2022 02:10 9,3 C 8,3 C 6,7 C 99 % 1011,1 hPa 0,0 l/m 0 min 0 min 0 W/m 0,0 km/h (0 Bft) 93,62 %
21.12.2022 02:12 9,3 C 8,3 C 6,7 C 99 % 1011,1 hPa 0,0 l/m 0 min 0 min 0 W/m 0,0 km/h (0 Bft) 93,62 %
21.12.2022 02:14 9,3 C 8,3 C 6,7 C 99 % 1011,1 hPa 0,0 l/m 0 min 0 min 0 W/m 0,0 km/h (0 Bft) 95,65 %
21.12.2022 02:16 9,3 C 8,3 C 6,7 C 99 % 1011,2 hPa 0,0 l/m 0 min 2 min 0 W/m 0,0 km/h (0 Bft) 95,74 %
21.12.2022 02:18 9,3 C 8,3 C 6,7 C 99 % 1011,3 hPa 0,0 l/m 0 min 0 min 0 W/m 0,0 km/h (0 Bft) 93,62 %
21.12.2022 02:20 9,3 C 8,3 C 6,7 C 99 % 1011,2 hPa 0,0 l/m 0 min 0 min 0 W/m 0,0 km/h (0 Bft) 93,62 %
21.12.2022 02:22 9,3 C 8,3 C 6,7 C 99 % 1011,3 hPa 0,0 l/m 0 min 0 min 0 W/m 0,0 km/h (0 Bft) 97,87 %
21.12.2022 02:24 9,3 C 8,3 C 6,7 C 99 % 1011,3 hPa 0,0 l/m 0 min 0 min 0 W/m 0,0 km/h (0 Bft) 97,87 %
21.12.2022 02:26 9,3 C 8,3 C 6,7 C 99 % 1011,3 hPa 0,0 l/m 0 min 0 min 0 W/m 0,0 km/h (0 Bft) 95,74 %
21.12.2022 02:28 9,3 C 8,3 C 6,7 C 99 % 1011,3 hPa 0,0 l/m 0 min 0 min 0 W/m 0,0 km/h (0 Bft) 95,65 %
21.12.2022 02:30 9,3 C 8,3 C 6,7 C 99 % 1011,3 hPa 0,0 l/m 0 min 0 min 0 W/m 0,0 km/h (0 Bft) 91,49 %
21.12.2022 02:32 9,3 C 8,3 C 6,1 C 99 % 1011,3 hPa 0,0 l/m 0 min 2 min 0 W/m 0,0 km/h (0 Bft) 95,74 %
21.12.2022 02:34 9,3 C 8,3 C 6,7 C 99 % 1011,3 hPa 0,0 l/m 0 min 0 min 0 W/m 0,0 km/h (0 Bft) 95,74 %
21.12.2022 02:36 9,3 C 8,3 C 6,7 C 99 % 1011,4 hPa 0,0 l/m 0 min 0 min 0 W/m 0,0 km/h (0 Bft) 95,74 %
21.12.2022 02:38 9,2 C 8,3 C 6,7 C 99 % 1011,3 hPa 0,0 l/m 0 min 0 min 0 W/m 0,0 km/h (0 Bft) 95,74 %
21.12.2022 02:40 9,2 C 8,3 C 6,7 C 99 % 1011,4 hPa 0,0 l/m 0 min 0 min 0 W/m 0,0 km/h (0 Bft) 97,83 %
21.12.2022 02:42 9,2 C 8,3 C 6,7 C 99 % 1011,4 hPa 0,0 l/m 0 min 0 min 0 W/m 0,0 km/h (0 Bft) 93,62 %
21.12.2022 02:44 9,2 C 8,3 C 6,7 C 99 % 1011,3 hPa 0,0 l/m 0 min 0 min 0 W/m 0,0 km/h (0 Bft) 97,87 %
21.12.2022 02:46 9,2 C 8,3 C 6,7 C 99 % 1011,3 hPa 0,0 l/m 0 min 0 min 0 W/m 0,0 km/h (0 Bft) 97,87 %
21.12.2022 02:48 9,2 C 8,3 C 6,1 C 99 % 1011,3 hPa 0,0 l/m 0 min 0 min 0 W/m 0,0 km/h (0 Bft) 97,87 %
21.12.2022 02:50 9,2 C 8,3 C 6,7 C 99 % 1011,3 hPa 0,0 l/m 0 min 0 min 0 W/m 0,0 km/h (0 Bft) 93,62 %
21.12.2022 02:52 9,2 C 8,3 C 6,7 C 99 % 1011,3 hPa 0,0 l/m 0 min 0 min 0 W/m 0,0 km/h (0 Bft) 95,65 %
21.12.2022 02:54 9,2 C 8,3 C 6,7 C 99 % 1011,3 hPa 0,0 l/m 0 min 0 min 0 W/m 0,0 km/h (0 Bft) 42,86 %
21.12.2022 02:56 9,2 C 8,3 C 6,7 C 99 % 1011,2 hPa 0,0 l/m 0 min 0 min 0 W/m 0,0 km/h (0 Bft) 97,22 %
21.12.2022 02:58 9,2 C 8,3 C 6,7 C 99 % 1011,2 hPa 0,0 l/m 0 min 0 min 0 W/m 0,0 km/h (0 Bft) 97,87 %
21.12.2022 03:00 9,2 C 8,3 C 6,7 C 99 % 1011,1 hPa 0,0 l/m 0 min 0 min 0 W/m 0,0 km/h (0 Bft) 97,87 %
21.12.2022 03:02 9,2 C 8,3 C 6,7 C 99 % 1011,2 hPa 0,0 l/m 0 min 0 min 0 W/m 0,0 km/h (0 Bft) 97,87 %
21.12.2022 03:04 9,2 C 8,3 C 6,1 C 99 % 1011,2 hPa 0,0 l/m 0 min 0 min 0 W/m 0,0 km/h (0 Bft) 97,87 %
21.12.2022 03:06 9,2 C 8,3 C 6,1 C 99 % 1011,2 hPa 0,0 l/m 0 min 0 min 0 W/m 0,0 km/h (0 Bft) 96,55 %
21.12.2022 03:08 9,2 C 8,3 C 6,1 C 99 % 1011,2 hPa 0,0 l/m 0 min 0 min 0 W/m 0,0 km/h (0 Bft) 94,29 %
21.12.2022 03:10 9,2 C 8,3 C 6,1 C 99 % 1011,2 hPa 0,0 l/m 0 min 0 min 0 W/m 0,0 km/h (0 Bft) 95,74 %
21.12.2022 03:12 9,2 C 8,3 C 6,1 C 99 % 1011,2 hPa 0,0 l/m 0 min 0 min 0 W/m 0,0 km/h (0 Bft) 100,00 %
21.12.2022 03:14 9,2 C 8,3 C 6,1 C 99 % 1011,2 hPa 0,0 l/m 0 min 0 min 0 W/m 0,0 km/h (0 Bft) 95,74 %
21.12.2022 03:16 9,2 C 8,3 C 6,1 C 99 % 1011,2 hPa 0,0 l/m 0 min 0 min 0 W/m 0,0 km/h (0 Bft) 100,00 %
21.12.2022 03:18 9,2 C 8,3 C 6,1 C 99 % 1011,2 hPa 0,0 l/m 0 min 0 min 0 W/m 0,0 km/h (0 Bft) 100,00 %
21.12.2022 03:20 9,2 C 8,3 C 6,7 C 99 % 1011,3 hPa 0,0 l/m 0 min 0 min 0 W/m 0,0 km/h (0 Bft) 97,87 %
21.12.2022 03:22 9,2 C 8,3 C 6,7 C 99 % 1011,3 hPa 0,0 l/m 0 min 0 min 0 W/m 0,0 km/h (0 Bft) 100,00 %
21.12.2022 03:24 9,2 C 8,3 C 6,1 C 99 % 1011,2 hPa 0,0 l/m 0 min 0 min 0 W/m 0,0 km/h (0 Bft) 100,00 %
21.12.2022 03:26 9,2 C 8,3 C 6,7 C 99 % 1011,2 hPa 0,0 l/m 0 min 0 min 0 W/m 0,0 km/h (0 Bft) 100,00 %
21.12.2022 03:28 9,2 C 8,3 C 6,7 C 99 % 1011,2 hPa 0,0 l/m 0 min 0 min 0 W/m 0,0 km/h (0 Bft) 100,00 %
21.12.2022 03:30 9,2 C 8,3 C 6,7 C 99 % 1011,3 hPa 0,0 l/m 0 min 0 min 0 W/m 0,0 km/h (0 Bft) 100,00 %
21.12.2022 03:32 9,2 C 8,3 C 6,7 C 99 % 1011,3 hPa 0,0 l/m 0 min 0 min 0 W/m 6,4 km/h (2 Bft) 100,00 %
21.12.2022 03:34 9,2 C 8,3 C 6,7 C 99 % 1011,4 hPa 0,0 l/m 0 min 0 min 0 W/m 9,7 km/h (2 Bft) 98,00 %
21.12.2022 03:36 9,2 C 8,3 C 6,7 C 99 % 1011,4 hPa 0,0 l/m 0 min 0 min 0 W/m 3,2 km/h (1 Bft) 100,00 %
21.12.2022 03:38 9,2 C 8,3 C 6,7 C 99 % 1011,3 hPa 0,0 l/m 0 min 0 min 0 W/m 3,2 km/h (1 Bft) 100,00 %
21.12.2022 03:40 9,2 C 8,3 C 6,7 C 99 % 1011,3 hPa 0,0 l/m 0 min 0 min 0 W/m 3,2 km/h (1 Bft) 100,00 %
21.12.2022 03:42 9,2 C 8,3 C 6,7 C 99 % 1011,4 hPa 0,0 l/m 0 min 0 min 0 W/m 3,2 km/h (1 Bft) 100,00 %
21.12.2022 03:44 9,2 C 8,3 C 6,7 C 99 % 1011,4 hPa 0,0 l/m 0 min 2 min 0 W/m 3,2 km/h (1 Bft) 97,87 %
21.12.2022 03:46 9,2 C 8,3 C 6,7 C 99 % 1011,3 hPa 0,0 l/m 0 min 2 min 0 W/m 3,2 km/h (1 Bft) 97,87 %
21.12.2022 03:48 9,2 C 8,3 C 6,7 C 99 % 1011,3 hPa 0,0 l/m 0 min 0 min 0 W/m 3,2 km/h (1 Bft) 97,87 %
21.12.2022 03:50 9,2 C 8,3 C 6,7 C 99 % 1011,3 hPa 0,0 l/m 0 min 0 min 0 W/m 0,0 km/h (0 Bft) 97,87 %
21.12.2022 03:52 9,2 C 8,3 C 6,7 C 99 % 1011,3 hPa 0,0 l/m 0 min 2 min 0 W/m 3,2 km/h (1 Bft) 97,83 %
21.12.2022 03:54 9,2 C 8,3 C 6,7 C 99 % 1011,2 hPa 0,2 l/m 0 min 2 min 0 W/m 0,0 km/h (0 Bft) 97,87 %
21.12.2022 03:56 9,2 C 8,3 C 6,7 C 99 % 1011,2 hPa 0,0 l/m 0 min 2 min 0 W/m 0,0 km/h (0 Bft) 97,87 %
21.12.2022 03:58 9,2 C 8,3 C 6,7 C 99 % 1011,3 hPa 0,0 l/m 0 min 0 min 0 W/m 0,0 km/h (0 Bft) 97,87 %
21.12.2022 04:00 9,2 C 8,3 C 6,7 C 99 % 1011,3 hPa 0,0 l/m 0 min 0 min 0 W/m 0,0 km/h (0 Bft) 93,62 %
21.12.2022 04:02 9,2 C 8,3 C 6,7 C 99 % 1011,2 hPa 0,0 l/m 0 min 0 min 0 W/m 0,0 km/h (0 Bft) 95,83 %
21.12.2022 04:04 9,2 C 8,3 C 6,7 C 99 % 1011,2 hPa 0,0 l/m 0 min 0 min 0 W/m 0,0 km/h (0 Bft) 95,74 %
21.12.2022 04:06 9,2 C 8,3 C 6,7 C 99 % 1011,2 hPa 0,0 l/m 0 min 0 min 0 W/m 0,0 km/h (0 Bft) 95,65 %
21.12.2022 04:08 9,2 C 8,3 C 6,7 C 99 % 1011,2 hPa 0,0 l/m 0 min 0 min 0 W/m 0,0 km/h (0 Bft) 97,87 %
21.12.2022 04:10 9,2 C 8,3 C 6,7 C 99 % 1011,1 hPa 0,0 l/m 0 min 0 min 0 W/m 0,0 km/h (0 Bft) 97,87 %
21.12.2022 04:12 9,2 C 8,3 C 6,7 C 99 % 1011,2 hPa 0,0 l/m 0 min 0 min 0 W/m 0,0 km/h (0 Bft) 95,74 %
21.12.2022 04:14 9,2 C 8,3 C 6,7 C 99 % 1011,2 hPa 0,0 l/m 0 min 0 min 0 W/m 0,0 km/h (0 Bft) 97,87 %
21.12.2022 04:16 9,2 C 8,3 C 6,7 C 99 % 1011,2 hPa 0,0 l/m 0 min 2 min 0 W/m 0,0 km/h (0 Bft) 97,87 %
21.12.2022 04:18 9,2 C 8,3 C 6,7 C 100 % 1011,2 hPa 0,0 l/m 0 min 2 min 0 W/m 0,0 km/h (0 Bft) 100,00 %
21.12.2022 04:20 9,2 C 8,3 C 6,7 C 99 % 1011,1 hPa 0,0 l/m 0 min 2 min 0 W/m 0,0 km/h (0 Bft) 100,00 %
21.12.2022 04:22 9,2 C 8,3 C 6,7 C 100 % 1011,1 hPa 0,0 l/m 0 min 0 min 0 W/m 0,0 km/h (0 Bft) 97,87 %
21.12.2022 04:24 9,2 C 8,3 C 6,7 C 100 % 1011,1 hPa 0,0 l/m 0 min 0 min 0 W/m 0,0 km/h (0 Bft) 100,00 %
21.12.2022 04:26 9,2 C 8,3 C 6,1 C 100 % 1011,1 hPa 0,0 l/m 0 min 0 min 0 W/m 0,0 km/h (0 Bft) 100,00 %
21.12.2022 04:28 9,2 C 8,3 C 6,1 C 100 % 1011,1 hPa 0,0 l/m 0 min 0 min 0 W/m 0,0 km/h (0 Bft) 100,00 %
21.12.2022 04:30 9,2 C 8,3 C 6,1 C 100 % 1011,0 hPa 0,0 l/m 0 min 0 min 0 W/m 0,0 km/h (0 Bft) 100,00 %
21.12.2022 04:32 9,2 C 8,3 C 6,1 C 100 % 1011,0 hPa 0,0 l/m 0 min 0 min 0 W/m 0,0 km/h (0 Bft) 100,00 %
21.12.2022 04:34 9,2 C 8,3 C 6,1 C 99 % 1011,0 hPa 0,0 l/m 0 min 0 min 0 W/m 0,0 km/h (0 Bft) 100,00 %
21.12.2022 04:36 9,2 C 8,3 C 6,7 C 100 % 1011,0 hPa 0,0 l/m 0 min 0 min 0 W/m 0,0 km/h (0 Bft) 100,00 %
21.12.2022 04:38 9,2 C 8,3 C 6,7 C 99 % 1010,9 hPa 0,0 l/m 0 min 0 min 0 W/m 0,0 km/h (0 Bft) 100,00 %
21.12.2022 04:40 9,2 C 8,3 C 6,1 C 99 % 1011,0 hPa 0,0 l/m 0 min 0 min 0 W/m 0,0 km/h (0 Bft) 100,00 %
21.12.2022 04:42 9,2 C 8,3 C 6,1 C 99 % 1010,9 hPa 0,0 l/m 0 min 0 min 0 W/m 0,0 km/h (0 Bft) 100,00 %
21.12.2022 04:44 9,2 C 8,3 C 6,1 C 99 % 1010,9 hPa 0,0 l/m 0 min 0 min 0 W/m 0,0 km/h (0 Bft) 97,87 %
21.12.2022 04:46 9,2 C 8,3 C 6,1 C 99 % 1010,9 hPa 0,0 l/m 0 min 0 min 0 W/m 0,0 km/h (0 Bft) 97,83 %
21.12.2022 04:48 9,2 C 8,3 C 6,1 C 99 % 1010,8 hPa 0,0 l/m 0 min 0 min 0 W/m 0,0 km/h (0 Bft) 95,74 %
21.12.2022 04:50 9,2 C 8,3 C 6,1 C 99 % 1010,7 hPa 0,0 l/m 0 min 0 min 0 W/m 0,0 km/h (0 Bft) 97,87 %
21.12.2022 04:52 9,2 C 8,3 C 6,7 C 99 % 1010,9 hPa 0,0 l/m 0 min 0 min 0 W/m 0,0 km/h (0 Bft) 97,87 %
21.12.2022 04:54 9,2 C 8,3 C 6,1 C 99 % 1010,8 hPa 0,0 l/m 0 min 0 min 0 W/m 0,0 km/h (0 Bft) 95,74 %
21.12.2022 04:56 9,2 C 8,3 C 6,7 C 99 % 1010,7 hPa 0,0 l/m 0 min 0 min 0 W/m 0,0 km/h (0 Bft) 95,74 %
21.12.2022 04:58 9,2 C 8,3 C 6,7 C 99 % 1010,7 hPa 0,0 l/m 0 min 0 min 0 W/m 0,0 km/h (0 Bft) 97,83 %
21.12.2022 05:00 9,2 C 8,3 C 6,7 C 99 % 1010,6 hPa 0,0 l/m 0 min 0 min 0 W/m 0,0 km/h (0 Bft) 97,87 %
21.12.2022 05:02 9,2 C 8,3 C 6,7 C 99 % 1010,7 hPa 0,0 l/m 0 min 0 min 0 W/m 0,0 km/h (0 Bft) 97,87 %
21.12.2022 05:04 9,2 C 8,3 C 6,7 C 99 % 1010,6 hPa 0,0 l/m 0 min 0 min 0 W/m 0,0 km/h (0 Bft) 93,62 %
21.12.2022 05:06 9,2 C 8,3 C 6,7 C 99 % 1010,6 hPa 0,0 l/m 0 min 0 min 0 W/m 0,0 km/h (0 Bft) 96,61 %
21.12.2022 05:08 9,2 C 8,3 C 6,7 C 99 % 1010,6 hPa 0,0 l/m 0 min 0 min 0 W/m 0,0 km/h (0 Bft) 94,29 %
21.12.2022 05:10 9,2 C 8,3 C 6,7 C 99 % 1010,7 hPa 0,0 l/m 0 min 0 min 0 W/m 0,0 km/h (0 Bft) 95,74 %
21.12.2022 05:12 9,2 C 8,3 C 6,7 C 99 % 1010,7 hPa 0,0 l/m 0 min 0 min 0 W/m 0,0 km/h (0 Bft) 95,65 %
21.12.2022 05:14 9,2 C 8,3 C 6,7 C 99 % 1010,6 hPa 0,0 l/m 0 min 0 min 0 W/m 0,0 km/h (0 Bft) 95,74 %
21.12.2022 05:16 9,2 C 8,3 C 6,7 C 99 % 1010,7 hPa 0,0 l/m 0 min 0 min 0 W/m 0,0 km/h (0 Bft) 95,74 %
21.12.2022 05:18 9,2 C 8,3 C 6,7 C 99 % 1010,6 hPa 0,0 l/m 0 min 0 min 0 W/m 0,0 km/h (0 Bft) 95,74 %
21.12.2022 05:20 9,1 C 8,3 C 6,7 C 99 % 1010,6 hPa 0,0 l/m 0 min 0 min 0 W/m 0,0 km/h (0 Bft) 95,74 %
21.12.2022 05:22 9,1 C 8,3 C 6,7 C 99 % 1010,6 hPa 0,0 l/m 0 min 0 min 0 W/m 0,0 km/h (0 Bft) 93,62 %
21.12.2022 05:24 9,1 C 8,3 C 6,7 C 99 % 1010,6 hPa 0,0 l/m 0 min 0 min 0 W/m 0,0 km/h (0 Bft) 95,65 %
21.12.2022 05:26 9,1 C 8,3 C 6,7 C 99 % 1010,6 hPa 0,0 l/m 0 min 0 min 0 W/m 0,0 km/h (0 Bft) 93,62 %
21.12.2022 05:28 9,1 C 8,3 C 6,1 C 99 % 1010,6 hPa 0,0 l/m 0 min 0 min 0 W/m 0,0 km/h (0 Bft) 95,74 %
21.12.2022 05:30 9,1 C 8,3 C 6,1 C 100 % 1010,6 hPa 0,0 l/m 0 min 0 min 0 W/m 0,0 km/h (0 Bft) 97,87 %
21.12.2022 05:32 9,1 C 8,3 C 6,1 C 100 % 1010,6 hPa 0,0 l/m 0 min 0 min 0 W/m 0,0 km/h (0 Bft) 95,74 %
21.12.2022 05:34 9,1 C 8,3 C 6,1 C 100 % 1010,6 hPa 0,0 l/m 0 min 2 min 0 W/m 0,0 km/h (0 Bft) 95,74 %
21.12.2022 05:36 9,1 C 8,3 C 6,1 C 100 % 1010,6 hPa 0,0 l/m 0 min 2 min 0 W/m 0,0 km/h (0 Bft) 97,83 %
21.12.2022 05:38 9,1 C 8,3 C 6,1 C 100 % 1010,5 hPa 0,0 l/m 0 min 2 min 0 W/m 0,0 km/h (0 Bft) 97,87 %
21.12.2022 05:40 9,0 C 8,3 C 6,1 C 100 % 1010,5 hPa 0,0 l/m 0 min 0 min 0 W/m 0,0 km/h (0 Bft) 91,49 %
21.12.2022 05:42 9,0 C 8,3 C 6,1 C 100 % 1010,6 hPa 0,0 l/m 0 min 2 min 0 W/m 0,0 km/h (0 Bft) 95,74 %
21.12.2022 05:44 9,0 C 8,3 C 6,1 C 100 % 1010,6 hPa 0,2 l/m 0 min 2 min 0 W/m 3,2 km/h (1 Bft) 95,74 %
21.12.2022 05:46 8,9 C 7,8 C 6,1 C 100 % 1010,6 hPa 0,0 l/m 0 min 2 min 0 W/m 3,2 km/h (1 Bft) 95,74 %
21.12.2022 05:48 8,9 C 8,3 C 6,1 C 100 % 1010,6 hPa 0,0 l/m 0 min 2 min 0 W/m 0,0 km/h (0 Bft) 95,74 %
21.12.2022 05:50 8,9 C 7,8 C 6,1 C 100 % 1010,6 hPa 0,0 l/m 0 min 0 min 0 W/m 0,0 km/h (0 Bft) 95,65 %
21.12.2022 05:52 8,9 C 7,8 C 6,1 C 99 % 1010,6 hPa 0,0 l/m 0 min 0 min 0 W/m 3,2 km/h (1 Bft) 97,87 %
21.12.2022 05:54 8,9 C 7,8 C 6,1 C 99 % 1010,6 hPa 0,0 l/m 0 min 0 min 0 W/m 3,2 km/h (1 Bft) 97,87 %
21.12.2022 05:56 8,9 C 7,8 C 6,1 C 99 % 1010,7 hPa 0,0 l/m 0 min 2 min 0 W/m 3,2 km/h (1 Bft) 97,87 %
21.12.2022 05:58 8,9 C 7,8 C 6,1 C 99 % 1010,7 hPa 0,0 l/m 0 min 0 min 0 W/m 3,2 km/h (1 Bft) 97,87 %
21.12.2022 06:00 8,8 C 7,8 C 6,1 C 99 % 1010,7 hPa 0,0 l/m 0 min 2 min 0 W/m 3,2 km/h (1 Bft) 97,87 %
21.12.2022 06:02 8,8 C 7,8 C 6,1 C 99 % 1010,7 hPa 0,0 l/m 0 min 2 min 0 W/m 6,4 km/h (2 Bft) 97,83 %
21.12.2022 06:04 8,8 C 7,8 C 6,1 C 99 % 1010,7 hPa 0,0 l/m 0 min 0 min 0 W/m 3,2 km/h (1 Bft) 97,87 %
21.12.2022 06:08 8,8 C 7,8 C 6,1 C 99 % 1010,7 hPa 0,0 l/m 0 min 0 min 0 W/m 0,0 km/h (0 Bft) 97,87 %
21.12.2022 06:10 8,8 C 7,8 C 6,1 C 99 % 1010,6 hPa 0,2 l/m 0 min 0 min 0 W/m 0,0 km/h (0 Bft) 95,74 %
21.12.2022 06:12 8,8 C 7,8 C 6,1 C 99 % 1010,6 hPa 0,0 l/m 0 min 0 min 0 W/m 3,2 km/h (1 Bft) 97,87 %
21.12.2022 06:14 8,8 C 7,8 C 6,1 C 99 % 1010,6 hPa 0,0 l/m 0 min 0 min 0 W/m 0,0 km/h (0 Bft) 97,87 %
21.12.2022 06:16 8,8 C 7,8 C 6,1 C 99 % 1010,7 hPa 0,0 l/m 0 min 0 min 0 W/m 0,0 km/h (0 Bft) 97,83 %
21.12.2022 06:18 8,8 C 7,8 C 6,1 C 99 % 1010,7 hPa 0,0 l/m 0 min 0 min 0 W/m 0,0 km/h (0 Bft) 100,00 %
21.12.2022 06:20 8,8 C 7,8 C 6,1 C 99 % 1010,6 hPa 0,0 l/m 0 min 0 min 0 W/m 0,0 km/h (0 Bft) 95,74 %
21.12.2022 06:22 8,8 C 7,8 C 6,1 C 99 % 1010,6 hPa 0,0 l/m 0 min 0 min 0 W/m 0,0 km/h (0 Bft) 100,00 %
21.12.2022 06:24 8,8 C 7,8 C 6,1 C 99 % 1010,6 hPa 0,0 l/m 0 min 0 min 0 W/m 0,0 km/h (0 Bft) 100,00 %
21.12.2022 06:26 8,8 C 7,8 C 6,1 C 99 % 1010,6 hPa 0,0 l/m 0 min 0 min 0 W/m 0,0 km/h (0 Bft) 100,00 %
21.12.2022 06:28 8,8 C 7,8 C 6,1 C 99 % 1010,6 hPa 0,0 l/m 0 min 0 min 0 W/m 0,0 km/h (0 Bft) 95,74 %
21.12.2022 06:30 8,8 C 7,8 C 6,1 C 99 % 1010,6 hPa 0,0 l/m 0 min 0 min 0 W/m 0,0 km/h (0 Bft) 100,00 %
21.12.2022 06:32 8,8 C 7,8 C 6,1 C 99 % 1010,6 hPa 0,0 l/m 0 min 0 min 0 W/m 0,0 km/h (0 Bft) 100,00 %
21.12.2022 06:34 8,8 C 7,8 C 6,1 C 99 % 1010,5 hPa 0,0 l/m 0 min 0 min 0 W/m 0,0 km/h (0 Bft) 100,00 %
21.12.2022 06:36 8,7 C 7,8 C 6,1 C 99 % 1010,5 hPa 0,0 l/m 0 min 2 min 0 W/m 0,0 km/h (0 Bft) 100,00 %
21.12.2022 06:38 8,7 C 7,8 C 6,1 C 99 % 1010,5 hPa 0,0 l/m 0 min 2 min 0 W/m 0,0 km/h (0 Bft) 100,00 %
21.12.2022 06:40 8,7 C 7,8 C 6,1 C 100 % 1010,5 hPa 0,0 l/m 0 min 0 min 0 W/m 0,0 km/h (0 Bft) 100,00 %
21.12.2022 06:42 8,7 C 7,8 C 6,1 C 100 % 1010,6 hPa 0,0 l/m 0 min 0 min 0 W/m 0,0 km/h (0 Bft) 100,00 %
21.12.2022 06:44 8,7 C 7,8 C 6,1 C 100 % 1010,5 hPa 0,0 l/m 0 min 0 min 0 W/m 0,0 km/h (0 Bft) 97,87 %
21.12.2022 06:46 8,7 C 7,8 C 6,1 C 100 % 1010,5 hPa 0,0 l/m 0 min 0 min 0 W/m 0,0 km/h (0 Bft) 100,00 %
21.12.2022 06:48 8,7 C 7,8 C 6,1 C 100 % 1010,5 hPa 0,0 l/m 0 min 0 min 0 W/m 0,0 km/h (0 Bft) 100,00 %
21.12.2022 06:50 8,7 C 7,8 C 6,1 C 100 % 1010,5 hPa 0,0 l/m 0 min 0 min 0 W/m 0,0 km/h (0 Bft) 100,00 %
21.12.2022 06:52 8,7 C 7,8 C 6,1 C 100 % 1010,5 hPa 0,0 l/m 0 min 0 min 0 W/m 0,0 km/h (0 Bft) 100,00 %
21.12.2022 06:54 8,7 C 7,8 C 6,1 C 100 % 1010,4 hPa 0,0 l/m 0 min 0 min 0 W/m 0,0 km/h (0 Bft) 100,00 %
21.12.2022 06:56 8,7 C 7,8 C 6,1 C 100 % 1010,5 hPa 0,0 l/m 0 min 0 min 0 W/m 3,2 km/h (1 Bft) 100,00 %
21.12.2022 06:58 8,7 C 7,8 C 6,1 C 100 % 1010,5 hPa 0,0 l/m 0 min 0 min 0 W/m 3,2 km/h (1 Bft) 100,00 %
21.12.2022 07:00 8,7 C 7,8 C 6,1 C 100 % 1010,4 hPa 0,0 l/m 0 min 0 min 0 W/m 0,0 km/h (0 Bft) 100,00 %
21.12.2022 07:02 8,7 C 7,8 C 6,1 C 100 % 1010,4 hPa 0,0 l/m 0 min 0 min 0 W/m 0,0 km/h (0 Bft) 100,00 %
21.12.2022 07:04 8,7 C 7,8 C 6,1 C 100 % 1010,5 hPa 0,0 l/m 0 min 0 min 0 W/m 0,0 km/h (0 Bft) 100,00 %
21.12.2022 07:06 8,7 C 7,8 C 6,1 C 100 % 1010,5 hPa 0,0 l/m 0 min 0 min 0 W/m 0,0 km/h (0 Bft) 100,00 %
21.12.2022 07:08 8,7 C 7,8 C 6,1 C 100 % 1010,4 hPa 0,0 l/m 0 min 0 min 0 W/m 0,0 km/h (0 Bft) 100,00 %
21.12.2022 07:10 8,7 C 7,8 C 6,1 C 100 % 1010,5 hPa 0,0 l/m 0 min 0 min 0 W/m 0,0 km/h (0 Bft) 100,00 %
21.12.2022 07:12 8,7 C 7,8 C 6,1 C 100 % 1010,5 hPa 0,0 l/m 0 min 0 min 0 W/m 0,0 km/h (0 Bft) 97,87 %
21.12.2022 07:14 8,7 C 7,8 C 6,1 C 100 % 1010,5 hPa 0,0 l/m 0 min 2 min 0 W/m 0,0 km/h (0 Bft) 97,87 %
21.12.2022 07:16 8,7 C 7,8 C 6,1 C 100 % 1010,5 hPa 0,2 l/m 0 min 2 min 0 W/m 0,0 km/h (0 Bft) 100,00 %
21.12.2022 07:18 8,6 C 7,8 C 6,1 C 100 % 1010,5 hPa 0,0 l/m 0 min 2 min 0 W/m 0,0 km/h (0 Bft) 100,00 %
21.12.2022 07:20 8,6 C 7,8 C 6,1 C 100 % 1010,5 hPa 0,0 l/m 0 min 2 min 0 W/m 0,0 km/h (0 Bft) 100,00 %
21.12.2022 07:22 8,6 C 7,8 C 6,1 C 100 % 1010,5 hPa 0,0 l/m 0 min 2 min 0 W/m 0,0 km/h (0 Bft) 97,87 %
21.12.2022 07:24 8,6 C 7,8 C 6,1 C 100 % 1010,5 hPa 0,0 l/m 0 min 2 min 0 W/m 0,0 km/h (0 Bft) 100,00 %
21.12.2022 07:26 8,6 C 7,8 C 6,1 C 100 % 1010,5 hPa 0,0 l/m 0 min 2 min 0 W/m 0,0 km/h (0 Bft) 100,00 %
21.12.2022 07:28 8,6 C 7,8 C 6,1 C 100 % 1010,4 hPa 0,2 l/m 0 min 2 min 0 W/m 0,0 km/h (0 Bft) 97,87 %
21.12.2022 07:30 8,6 C 7,8 C 6,1 C 100 % 1010,4 hPa 0,0 l/m 0 min 2 min 0 W/m 0,0 km/h (0 Bft) 97,87 %
21.12.2022 07:32 8,6 C 7,8 C 6,1 C 100 % 1010,5 hPa 0,0 l/m 0 min 2 min 0 W/m 0,0 km/h (0 Bft) 97,83 %
21.12.2022 07:34 8,6 C 7,8 C 6,1 C 100 % 1010,5 hPa 0,0 l/m 0 min 2 min 0 W/m 0,0 km/h (0 Bft) 97,87 %
21.12.2022 07:36 8,6 C 7,8 C 6,1 C 100 % 1010,5 hPa 0,0 l/m 0 min 2 min 0 W/m 0,0 km/h (0 Bft) 100,00 %
21.12.2022 07:38 8,6 C 7,8 C 6,1 C 100 % 1010,5 hPa 0,2 l/m 0 min 2 min 0 W/m 0,0 km/h (0 Bft) 97,87 %
21.12.2022 07:40 8,6 C 7,8 C 6,1 C 100 % 1010,5 hPa 0,0 l/m 0 min 2 min 0 W/m 0,0 km/h (0 Bft) 91,49 %
21.12.2022 07:42 8,6 C 7,8 C 6,1 C 100 % 1010,4 hPa 0,0 l/m 0 min 2 min 0 W/m 0,0 km/h (0 Bft) 93,62 %
21.12.2022 07:44 8,6 C 7,8 C 6,1 C 100 % 1010,5 hPa 0,2 l/m 0 min 2 min 0 W/m 0,0 km/h (0 Bft) 95,65 %
21.12.2022 07:46 8,6 C 7,8 C 6,1 C 100 % 1010,5 hPa 0,0 l/m 0 min 2 min 0 W/m 0,0 km/h (0 Bft) 93,62 %
21.12.2022 07:48 8,6 C 7,8 C 6,1 C 100 % 1010,4 hPa 0,2 l/m 0 min 2 min 0 W/m 0,0 km/h (0 Bft) 91,49 %
21.12.2022 07:50 8,6 C 7,8 C 6,1 C 100 % 1010,4 hPa 0,0 l/m 0 min 2 min 0 W/m 0,0 km/h (0 Bft) 91,49 %
21.12.2022 07:52 8,6 C 7,8 C 6,1 C 100 % 1010,4 hPa 0,0 l/m 0 min 0 min 0 W/m 0,0 km/h (0 Bft) 93,62 %
21.12.2022 07:54 8,6 C 7,8 C 6,1 C 100 % 1010,3 hPa 0,0 l/m 0 min 0 min 0 W/m 0,0 km/h (0 Bft) 93,62 %
21.12.2022 07:56 8,6 C 7,8 C 6,1 C 100 % 1010,4 hPa 0,0 l/m 0 min 0 min 0 W/m 0,0 km/h (0 Bft) 93,62 %
21.12.2022 07:58 8,6 C 7,8 C 6,1 C 100 % 1010,4 hPa 0,0 l/m 0 min 0 min 0 W/m 0,0 km/h (0 Bft) 91,30 %
21.12.2022 08:00 8,6 C 7,8 C 6,1 C 100 % 1010,5 hPa 0,0 l/m 0 min 0 min 0 W/m 0,0 km/h (0 Bft) 93,62 %
21.12.2022 08:02 8,6 C 7,8 C 6,1 C 100 % 1010,5 hPa 0,0 l/m 0 min 0 min 0 W/m 0,0 km/h (0 Bft) 91,49 %
21.12.2022 08:04 8,6 C 7,8 C 6,1 C 100 % 1010,6 hPa 0,0 l/m 0 min 0 min 0 W/m 0,0 km/h (0 Bft) 95,74 %
21.12.2022 08:06 8,6 C 7,8 C 6,1 C 100 % 1010,7 hPa 0,0 l/m 0 min 0 min 0 W/m 0,0 km/h (0 Bft) 93,62 %
21.12.2022 08:08 8,6 C 7,8 C 6,1 C 100 % 1010,7 hPa 0,0 l/m 0 min 0 min 0 W/m 0,0 km/h (0 Bft) 91,49 %
21.12.2022 08:10 8,5 C 7,2 C 6,1 C 99 % 1010,7 hPa 0,0 l/m 0 min 0 min 0 W/m 0,0 km/h (0 Bft) 95,65 %
21.12.2022 08:12 8,5 C 7,2 C 6,1 C 99 % 1010,7 hPa 0,0 l/m 0 min 0 min 0 W/m 0,0 km/h (0 Bft) 93,62 %
21.12.2022 08:14 8,5 C 7,2 C 6,1 C 99 % 1010,6 hPa 0,0 l/m 0 min 0 min 0 W/m 0,0 km/h (0 Bft) 95,74 %
21.12.2022 08:16 8,4 C 7,2 C 6,1 C 99 % 1010,7 hPa 0,0 l/m 0 min 0 min 0 W/m 0,0 km/h (0 Bft) 93,62 %
21.12.2022 08:18 8,4 C 7,8 C 6,1 C 99 % 1010,7 hPa 0,0 l/m 0 min 0 min 0 W/m 0,0 km/h (0 Bft) 93,62 %
21.12.2022 08:20 8,4 C 7,8 C 6,1 C 99 % 1010,8 hPa 0,0 l/m 0 min 0 min 0 W/m 0,0 km/h (0 Bft) 95,74 %
21.12.2022 08:22 8,4 C 7,8 C 6,1 C 99 % 1010,8 hPa 0,0 l/m 0 min 0 min 0 W/m 0,0 km/h (0 Bft) 95,74 %
21.12.2022 08:24 8,4 C 7,8 C 6,1 C 99 % 1010,7 hPa 0,0 l/m 0 min 0 min 0 W/m 0,0 km/h (0 Bft) 95,65 %
21.12.2022 08:26 8,4 C 7,8 C 6,1 C 99 % 1010,6 hPa 0,0 l/m 0 min 0 min 0 W/m 0,0 km/h (0 Bft) 100,00 %
21.12.2022 08:28 8,4 C 7,8 C 6,1 C 100 % 1010,7 hPa 0,0 l/m 0 min 0 min 0 W/m 0,0 km/h (0 Bft) 100,00 %
21.12.2022 08:30 8,4 C 7,8 C 6,1 C 100 % 1010,6 hPa 0,0 l/m 0 min 0 min 0 W/m 0,0 km/h (0 Bft) 100,00 %
21.12.2022 08:32 8,3 C 7,8 C 6,1 C 100 % 1010,8 hPa 0,0 l/m 0 min 0 min 0 W/m 0,0 km/h (0 Bft) 97,87 %
21.12.2022 08:34 8,3 C 7,8 C 6,1 C 100 % 1010,7 hPa 0,0 l/m 0 min 0 min 0 W/m 0,0 km/h (0 Bft) 100,00 %
21.12.2022 08:36 8,3 C 7,2 C 6,1 C 100 % 1010,7 hPa 0,0 l/m 0 min 0 min 0 W/m 0,0 km/h (0 Bft) 100,00 %
21.12.2022 08:38 8,3 C 7,2 C 6,1 C 100 % 1010,8 hPa 0,0 l/m 0 min 0 min 0 W/m 0,0 km/h (0 Bft) 97,87 %
21.12.2022 08:40 8,3 C 7,2 C 6,1 C 100 % 1010,9 hPa 0,0 l/m 0 min 0 min 0 W/m 0,0 km/h (0 Bft) 97,87 %
21.12.2022 08:42 8,3 C 7,2 C 6,1 C 100 % 1010,9 hPa 0,0 l/m 0 min 0 min 0 W/m 0,0 km/h (0 Bft) 95,74 %
21.12.2022 08:44 8,3 C 7,2 C 6,1 C 100 % 1010,9 hPa 0,0 l/m 0 min 0 min 0 W/m 0,0 km/h (0 Bft) 100,00 %
21.12.2022 08:46 8,3 C 7,2 C 6,1 C 100 % 1011,0 hPa 0,0 l/m 0 min 0 min 0 W/m 0,0 km/h (0 Bft) 100,00 %
21.12.2022 08:48 8,3 C 7,2 C 6,1 C 100 % 1011,0 hPa 0,0 l/m 0 min 0 min 0 W/m 0,0 km/h (0 Bft) 100,00 %
21.12.2022 08:50 8,3 C 7,2 C 5,6 C 100 % 1011,0 hPa 0,0 l/m 0 min 0 min 1 W/m 0,0 km/h (0 Bft) 97,87 %
21.12.2022 08:52 8,2 C 7,2 C 5,6 C 100 % 1011,0 hPa 0,0 l/m 0 min 0 min 5 W/m 0,0 km/h (0 Bft) 100,00 %
21.12.2022 08:54 8,2 C 7,2 C 5,6 C 100 % 1010,9 hPa 0,0 l/m 0 min 0 min 5 W/m 0,0 km/h (0 Bft) 100,00 %
21.12.2022 08:56 8,2 C 7,2 C 5,6 C 99 % 1010,9 hPa 0,0 l/m 0 min 0 min 6 W/m 0,0 km/h (0 Bft) 100,00 %
21.12.2022 08:58 8,2 C 7,2 C 5,6 C 99 % 1011,0 hPa 0,0 l/m 0 min 0 min 5 W/m 0,0 km/h (0 Bft) 100,00 %
21.12.2022 09:00 8,2 C 7,2 C 5,6 C 99 % 1011,0 hPa 0,0 l/m 0 min 0 min 5 W/m 0,0 km/h (0 Bft) 100,00 %
21.12.2022 09:02 8,2 C 7,2 C 5,6 C 99 % 1011,1 hPa 0,0 l/m 0 min 0 min 4 W/m 0,0 km/h (0 Bft) 100,00 %
21.12.2022 09:04 8,2 C 7,2 C 5,6 C 99 % 1011,1 hPa 0,0 l/m 0 min 0 min 0 W/m 0,0 km/h (0 Bft) 97,87 %
21.12.2022 09:06 8,2 C 7,2 C 5,6 C 99 % 1011,1 hPa 0,0 l/m 0 min 0 min 0 W/m 0,0 km/h (0 Bft) 100,00 %
21.12.2022 09:08 8,2 C 7,2 C 6,1 C 99 % 1011,0 hPa 0,0 l/m 0 min 0 min 2 W/m 0,0 km/h (0 Bft) 100,00 %
21.12.2022 09:10 8,2 C 7,2 C 6,1 C 99 % 1011,0 hPa 0,0 l/m 0 min 2 min 6 W/m 0,0 km/h (0 Bft) 100,00 %
21.12.2022 09:12 8,2 C 7,2 C 6,1 C 99 % 1011,1 hPa 0,0 l/m 0 min 0 min 6 W/m 0,0 km/h (0 Bft) 100,00 %
21.12.2022 09:14 8,2 C 7,2 C 6,1 C 99 % 1011,1 hPa 0,0 l/m 0 min 0 min 6 W/m 0,0 km/h (0 Bft) 100,00 %
21.12.2022 09:16 8,1 C 7,2 C 6,1 C 99 % 1011,0 hPa 0,0 l/m 0 min 0 min 7 W/m 0,0 km/h (0 Bft) 100,00 %
21.12.2022 09:18 8,1 C 7,2 C 6,1 C 99 % 1011,1 hPa 0,0 l/m 0 min 0 min 5 W/m 0,0 km/h (0 Bft) 100,00 %
21.12.2022 09:20 8,1 C 7,2 C 6,1 C 99 % 1011,1 hPa 0,0 l/m 0 min 0 min 3 W/m 0,0 km/h (0 Bft) 97,87 %
21.12.2022 09:22 8,1 C 7,2 C 6,1 C 99 % 1011,2 hPa 0,0 l/m 0 min 2 min 5 W/m 0,0 km/h (0 Bft) 100,00 %
21.12.2022 09:24 8,1 C 7,2 C 6,1 C 99 % 1011,1 hPa 0,0 l/m 0 min 2 min 6 W/m 0,0 km/h (0 Bft) 85,11 %
21.12.2022 09:26 8,1 C 7,2 C 6,1 C 99 % 1011,0 hPa 0,0 l/m 0 min 2 min 10 W/m 0,0 km/h (0 Bft) 68,18 %
21.12.2022 09:28 8,1 C 7,2 C 6,1 C 99 % 1011,1 hPa 0,0 l/m 0 min 2 min 12 W/m 0,0 km/h (0 Bft) 100,00 %
21.12.2022 09:30 8,1 C 7,2 C 6,1 C 99 % 1011,1 hPa 0,0 l/m 0 min 0 min 14 W/m 0,0 km/h (0 Bft) 100,00 %
21.12.2022 09:32 8,1 C 7,2 C 6,1 C 99 % 1011,1 hPa 0,0 l/m 0 min 0 min 15 W/m 0,0 km/h (0 Bft) 100,00 %
21.12.2022 09:34 8,1 C 7,2 C 6,1 C 99 % 1011,1 hPa 0,0 l/m 0 min 0 min 12 W/m 0,0 km/h (0 Bft) 100,00 %
21.12.2022 09:36 8,1 C 7,2 C 6,1 C 99 % 1011,2 hPa 0,0 l/m 0 min 2 min 12 W/m 0,0 km/h (0 Bft) 97,87 %
21.12.2022 09:38 8,1 C 7,2 C 6,1 C 99 % 1011,2 hPa 0,2 l/m 0 min 2 min 12 W/m 0,0 km/h (0 Bft) 97,87 %
21.12.2022 09:40 8,1 C 7,2 C 6,1 C 99 % 1011,2 hPa 0,0 l/m 0 min 2 min 12 W/m 0,0 km/h (0 Bft) 97,87 %
21.12.2022 09:42 8,1 C 7,2 C 6,1 C 99 % 1011,1 hPa 0,0 l/m 0 min 2 min 16 W/m 0,0 km/h (0 Bft) 97,83 %
21.12.2022 09:44 8,1 C 7,2 C 6,1 C 99 % 1011,2 hPa 0,0 l/m 0 min 2 min 20 W/m 0,0 km/h (0 Bft) 97,87 %
21.12.2022 09:46 8,1 C 7,2 C 6,1 C 99 % 1011,2 hPa 0,2 l/m 0 min 2 min 21 W/m 0,0 km/h (0 Bft) 93,62 %
21.12.2022 09:48 8,1 C 7,2 C 6,1 C 100 % 1011,2 hPa 0,2 l/m 0 min 2 min 14 W/m 0,0 km/h (0 Bft) 97,87 %
21.12.2022 09:50 8,1 C 7,2 C 6,1 C 100 % 1011,3 hPa 0,2 l/m 0 min 2 min 9 W/m 0,0 km/h (0 Bft) 97,87 %
21.12.2022 09:52 8,1 C 7,2 C 5,6 C 100 % 1011,4 hPa 0,0 l/m 0 min 2 min 7 W/m 0,0 km/h (0 Bft) 97,87 %
21.12.2022 09:54 8,1 C 7,2 C 6,1 C 100 % 1011,6 hPa 0,2 l/m 0 min 2 min 7 W/m 0,0 km/h (0 Bft) 97,83 %
21.12.2022 09:56 8,1 C 7,2 C 6,1 C 100 % 1011,5 hPa 0,0 l/m 0 min 2 min 13 W/m 6,4 km/h (2 Bft) 97,87 %
21.12.2022 09:58 8,1 C 7,2 C 6,1 C 100 % 1011,6 hPa 0,0 l/m 0 min 2 min 19 W/m 6,4 km/h (2 Bft) 95,74 %
21.12.2022 10:00 8,1 C 7,2 C 6,1 C 99 % 1011,5 hPa 0,0 l/m 0 min 2 min 35 W/m 3,2 km/h (1 Bft) 97,87 %
21.12.2022 10:02 8,2 C 7,8 C 6,1 C 99 % 1011,4 hPa 0,0 l/m 0 min 0 min 52 W/m 3,2 km/h (1 Bft) 97,87 %
21.12.2022 10:04 8,2 C 7,8 C 6,1 C 99 % 1011,4 hPa 0,0 l/m 0 min 0 min 48 W/m 0,0 km/h (0 Bft) 95,74 %
21.12.2022 10:06 8,2 C 7,8 C 6,1 C 99 % 1011,4 hPa 0,2 l/m 0 min 0 min 49 W/m 0,0 km/h (0 Bft) 97,83 %
21.12.2022 10:08 8,2 C 7,8 C 6,1 C 99 % 1011,4 hPa 0,0 l/m 0 min 0 min 73 W/m 6,4 km/h (2 Bft) 95,74 %
21.12.2022 10:10 8,3 C 7,8 C 6,1 C 99 % 1011,4 hPa 0,0 l/m 0 min 0 min 79 W/m 3,2 km/h (1 Bft) 96,30 %
21.12.2022 10:12 8,3 C 7,8 C 6,1 C 99 % 1011,4 hPa 0,0 l/m 0 min 0 min 68 W/m 6,4 km/h (2 Bft) 100,00 %
21.12.2022 10:14 8,3 C 7,8 C 6,1 C 100 % 1011,5 hPa 0,0 l/m 0 min 0 min 60 W/m 3,2 km/h (1 Bft) 100,00 %
21.12.2022 10:16 8,3 C 7,8 C 6,1 C 100 % 1011,5 hPa 0,0 l/m 0 min 0 min 57 W/m 3,2 km/h (1 Bft) 95,65 %
21.12.2022 10:18 8,3 C 7,8 C 6,1 C 100 % 1011,4 hPa 0,0 l/m 0 min 0 min 55 W/m 6,4 km/h (2 Bft) 97,87 %
21.12.2022 10:20 8,3 C 7,8 C 6,1 C 100 % 1011,4 hPa 0,0 l/m 0 min 0 min 42 W/m 6,4 km/h (2 Bft) 97,87 %
21.12.2022 10:22 8,3 C 7,8 C 6,1 C 100 % 1011,6 hPa 0,0 l/m 0 min 0 min 36 W/m 6,4 km/h (2 Bft) 95,74 %
21.12.2022 10:24 8,3 C 7,8 C 6,1 C 100 % 1011,6 hPa 0,0 l/m 0 min 0 min 37 W/m 3,2 km/h (1 Bft) 97,87 %
21.12.2022 10:26 8,3 C 7,8 C 6,1 C 100 % 1011,6 hPa 0,0 l/m 0 min 0 min 45 W/m 3,2 km/h (1 Bft) 95,74 %
21.12.2022 10:28 8,3 C 7,8 C 6,1 C 100 % 1011,6 hPa 0,0 l/m 0 min 0 min 52 W/m 3,2 km/h (1 Bft) 93,62 %
21.12.2022 10:30 8,3 C 7,8 C 6,1 C 100 % 1011,7 hPa 0,0 l/m 0 min 0 min 53 W/m 6,4 km/h (2 Bft) 93,48 %
21.12.2022 10:32 8,3 C 7,8 C 6,1 C 100 % 1011,8 hPa 0,0 l/m 0 min 0 min 57 W/m 3,2 km/h (1 Bft) 95,74 %
21.12.2022 10:34 8,3 C 7,8 C 6,1 C 100 % 1011,8 hPa 0,0 l/m 0 min 0 min 86 W/m 6,4 km/h (2 Bft) 91,49 %
21.12.2022 10:36 8,3 C 8,3 C 6,1 C 100 % 1011,8 hPa 0,0 l/m 0 min 0 min 92 W/m 6,4 km/h (2 Bft) 95,74 %
21.12.2022 10:38 8,3 C 7,8 C 6,1 C 100 % 1011,7 hPa 0,0 l/m 0 min 0 min 65 W/m 6,4 km/h (2 Bft) 95,74 %
21.12.2022 10:40 8,3 C 7,8 C 6,1 C 100 % 1011,7 hPa 0,0 l/m 0 min 0 min 57 W/m 6,4 km/h (2 Bft) 93,62 %
21.12.2022 10:42 8,3 C 7,8 C 6,1 C 100 % 1011,7 hPa 0,0 l/m 0 min 0 min 46 W/m 12,9 km/h (3 Bft) 95,65 %
21.12.2022 10:44 8,3 C 7,8 C 6,1 C 100 % 1011,7 hPa 0,0 l/m 0 min 0 min 38 W/m 6,4 km/h (2 Bft) 95,74 %
21.12.2022 10:46 8,2 C 7,8 C 6,1 C 100 % 1011,7 hPa 0,0 l/m 0 min 0 min 50 W/m 12,9 km/h (3 Bft) 93,62 %
21.12.2022 10:48 8,2 C 7,8 C 6,1 C 100 % 1011,9 hPa 0,0 l/m 0 min 0 min 59 W/m 6,4 km/h (2 Bft) 93,62 %
21.12.2022 10:50 8,2 C 7,8 C 6,1 C 100 % 1011,8 hPa 0,0 l/m 0 min 0 min 73 W/m 12,9 km/h (3 Bft) 93,62 %
21.12.2022 10:52 8,2 C 8,3 C 6,1 C 100 % 1011,8 hPa 0,0 l/m 2 min 0 min 171 W/m 3,2 km/h (1 Bft) 93,62 %
21.12.2022 10:54 8,2 C 8,3 C 6,7 C 100 % 1011,9 hPa 0,0 l/m 2 min 0 min 149 W/m 6,4 km/h (2 Bft) 95,74 %
21.12.2022 10:56 8,2 C 8,3 C 6,7 C 100 % 1011,9 hPa 0,0 l/m 0 min 0 min 94 W/m 3,2 km/h (1 Bft) 95,65 %
21.12.2022 10:58 8,3 C 8,3 C 6,7 C 100 % 1011,9 hPa 0,0 l/m 0 min 0 min 67 W/m 3,2 km/h (1 Bft) 93,62 %
21.12.2022 11:00 8,3 C 8,3 C 6,7 C 100 % 1011,9 hPa 0,0 l/m 0 min 0 min 69 W/m 3,2 km/h (1 Bft) 95,74 %
21.12.2022 11:02 8,3 C 8,3 C 6,7 C 100 % 1011,9 hPa 0,0 l/m 0 min 0 min 70 W/m 3,2 km/h (1 Bft) 93,62 %
21.12.2022 11:04 8,3 C 8,3 C 6,7 C 100 % 1011,9 hPa 0,0 l/m 0 min 0 min 67 W/m 6,4 km/h (2 Bft) 97,87 %
21.12.2022 11:06 8,3 C 8,3 C 6,7 C 100 % 1012,0 hPa 0,0 l/m 0 min 0 min 61 W/m 3,2 km/h (1 Bft) 95,74 %
21.12.2022 11:08 8,3 C 8,3 C 6,7 C 100 % 1011,9 hPa 0,0 l/m 0 min 0 min 63 W/m 3,2 km/h (1 Bft) 97,83 %
21.12.2022 11:10 8,3 C 8,3 C 6,1 C 100 % 1011,9 hPa 0,0 l/m 0 min 0 min 67 W/m 6,4 km/h (2 Bft) 97,87 %
21.12.2022 11:12 8,3 C 8,3 C 6,7 C 100 % 1011,8 hPa 0,0 l/m 0 min 0 min 76 W/m 6,4 km/h (2 Bft) 97,87 %
21.12.2022 11:14 8,3 C 8,3 C 6,1 C 100 % 1011,8 hPa 0,0 l/m 0 min 0 min 86 W/m 12,9 km/h (3 Bft) 97,87 %
21.12.2022 11:16 8,3 C 8,3 C 6,7 C 100 % 1011,8 hPa 0,0 l/m 0 min 0 min 93 W/m 6,4 km/h (2 Bft) 100,00 %
21.12.2022 11:18 8,3 C 8,3 C 6,7 C 100 % 1011,9 hPa 0,0 l/m 0 min 0 min 88 W/m 6,4 km/h (2 Bft) 100,00 %
21.12.2022 11:20 8,3 C 8,3 C 6,7 C 100 % 1011,9 hPa 0,0 l/m 0 min 0 min 76 W/m 12,9 km/h (3 Bft) 100,00 %
21.12.2022 11:22 8,3 C 8,3 C 6,1 C 100 % 1012,0 hPa 0,0 l/m 0 min 0 min 73 W/m 12,9 km/h (3 Bft) 97,83 %
21.12.2022 11:24 8,2 C 8,3 C 6,1 C 100 % 1012,0 hPa 0,0 l/m 0 min 0 min 73 W/m 12,9 km/h (3 Bft) 100,00 %
21.12.2022 11:26 8,2 C 8,3 C 6,1 C 100 % 1012,0 hPa 0,0 l/m 0 min 0 min 86 W/m 6,4 km/h (2 Bft) 100,00 %
21.12.2022 11:28 8,1 C 8,3 C 6,1 C 100 % 1011,9 hPa 0,0 l/m 0 min 0 min 96 W/m 12,9 km/h (3 Bft) 100,00 %
21.12.2022 11:30 8,1 C 8,3 C 6,1 C 100 % 1011,9 hPa 0,0 l/m 0 min 0 min 94 W/m 6,4 km/h (2 Bft) 97,87 %
21.12.2022 11:32 8,1 C 8,3 C 6,1 C 100 % 1011,9 hPa 0,0 l/m 0 min 0 min 95 W/m 6,4 km/h (2 Bft) 100,00 %
21.12.2022 11:34 8,1 C 8,3 C 6,1 C 100 % 1011,9 hPa 0,0 l/m 0 min 0 min 100 W/m 12,9 km/h (3 Bft) 97,96 %
21.12.2022 11:36 8,1 C 8,3 C 6,1 C 100 % 1012,0 hPa 0,0 l/m 0 min 0 min 102 W/m 16,1 km/h (3 Bft) 100,00 %
21.12.2022 11:38 8,1 C 8,3 C 6,1 C 100 % 1012,0 hPa 0,0 l/m 0 min 0 min 97 W/m 12,9 km/h (3 Bft) 97,87 %
21.12.2022 11:40 8,1 C 8,3 C 6,1 C 100 % 1012,0 hPa 0,0 l/m 0 min 0 min 94 W/m 12,9 km/h (3 Bft) 97,87 %
21.12.2022 11:42 8,1 C 8,3 C 6,1 C 100 % 1012,0 hPa 0,0 l/m 0 min 0 min 94 W/m 16,1 km/h (3 Bft) 97,87 %
21.12.2022 11:44 8,1 C 8,3 C 6,1 C 100 % 1012,0 hPa 0,0 l/m 0 min 0 min 97 W/m 12,9 km/h (3 Bft) 97,87 %
21.12.2022 11:46 8,1 C 8,3 C 6,1 C 100 % 1012,0 hPa 0,0 l/m 0 min 0 min 94 W/m 12,9 km/h (3 Bft) 95,74 %
21.12.2022 11:48 8,1 C 8,3 C 6,1 C 100 % 1011,9 hPa 0,0 l/m 0 min 0 min 88 W/m 6,4 km/h (2 Bft) 97,87 %
21.12.2022 11:50 8,1 C 8,3 C 6,1 C 100 % 1011,9 hPa 0,0 l/m 0 min 0 min 86 W/m 6,4 km/h (2 Bft) 95,65 %
21.12.2022 11:52 8,1 C 8,3 C 6,1 C 100 % 1011,9 hPa 0,0 l/m 0 min 0 min 80 W/m 6,4 km/h (2 Bft) 97,87 %
21.12.2022 11:54 8,1 C 8,3 C 6,1 C 100 % 1011,8 hPa 0,0 l/m 0 min 0 min 78 W/m 9,7 km/h (2 Bft) 97,87 %
21.12.2022 11:56 8,1 C 8,3 C 6,1 C 100 % 1011,8 hPa 0,0 l/m 0 min 0 min 79 W/m 9,7 km/h (2 Bft) 97,87 %
21.12.2022 11:58 8,1 C 8,3 C 6,1 C 100 % 1011,8 hPa 0,0 l/m 0 min 0 min 84 W/m 9,7 km/h (2 Bft) 97,87 %
21.12.2022 12:00 8,1 C 8,3 C 6,1 C 100 % 1011,8 hPa 0,0 l/m 0 min 0 min 92 W/m 19,3 km/h (3 Bft) 95,74 %
21.12.2022 12:02 8,1 C 8,3 C 6,1 C 100 % 1011,8 hPa 0,0 l/m 0 min 0 min 99 W/m 16,1 km/h (3 Bft) 93,48 %
21.12.2022 12:04 8,1 C 8,3 C 6,1 C 100 % 1011,8 hPa 0,0 l/m 0 min 0 min 106 W/m 12,9 km/h (3 Bft) 97,87 %
21.12.2022 12:08 8,2 C 8,3 C 6,1 C 100 % 1011,8 hPa 0,0 l/m 0 min 0 min 118 W/m 22,5 km/h (4 Bft) 96,81 %
21.12.2022 12:10 8,2 C 8,3 C 6,7 C 100 % 1011,7 hPa 0,0 l/m 0 min 0 min 130 W/m 12,9 km/h (3 Bft) 97,87 %
21.12.2022 12:12 8,2 C 8,9 C 6,7 C 100 % 1011,7 hPa 0,0 l/m 0 min 0 min 134 W/m 16,1 km/h (3 Bft) 100,00 %
21.12.2022 12:14 8,2 C 8,9 C 6,7 C 100 % 1011,7 hPa 0,0 l/m 0 min 0 min 138 W/m 19,3 km/h (3 Bft) 100,00 %
21.12.2022 12:16 8,3 C 8,9 C 6,7 C 100 % 1011,7 hPa 0,0 l/m 0 min 0 min 141 W/m 16,1 km/h (3 Bft) 97,87 %
21.12.2022 12:18 8,3 C 8,9 C 6,7 C 100 % 1011,6 hPa 0,0 l/m 2 min 0 min 150 W/m 16,1 km/h (3 Bft) 100,00 %
21.12.2022 12:20 8,3 C 8,9 C 6,7 C 100 % 1011,6 hPa 0,0 l/m 2 min 0 min 153 W/m 19,3 km/h (3 Bft) 100,00 %
21.12.2022 12:22 8,3 C 8,9 C 6,7 C 100 % 1011,7 hPa 0,0 l/m 0 min 0 min 148 W/m 25,7 km/h (4 Bft) 100,00 %
21.12.2022 12:24 8,3 C 8,9 C 6,7 C 100 % 1011,7 hPa 0,0 l/m 0 min 0 min 140 W/m 22,5 km/h (4 Bft) 100,00 %
21.12.2022 12:26 8,4 C 8,9 C 6,7 C 100 % 1011,7 hPa 0,0 l/m 0 min 0 min 136 W/m 12,9 km/h (3 Bft) 100,00 %
21.12.2022 12:28 8,4 C 8,9 C 6,7 C 100 % 1011,7 hPa 0,0 l/m 0 min 0 min 136 W/m 16,1 km/h (3 Bft) 100,00 %
21.12.2022 12:30 8,4 C 8,9 C 6,7 C 100 % 1011,7 hPa 0,0 l/m 0 min 0 min 140 W/m 16,1 km/h (3 Bft) 100,00 %
21.12.2022 12:32 8,4 C 8,9 C 6,7 C 100 % 1011,7 hPa 0,0 l/m 0 min 0 min 136 W/m 22,5 km/h (4 Bft) 97,87 %
21.12.2022 12:34 8,4 C 8,9 C 6,7 C 100 % 1011,7 hPa 0,0 l/m 0 min 0 min 130 W/m 12,9 km/h (3 Bft) 100,00 %
21.12.2022 12:36 8,4 C 8,9 C 6,7 C 100 % 1011,7 hPa 0,0 l/m 0 min 0 min 125 W/m 12,9 km/h (3 Bft) 100,00 %
21.12.2022 12:38 8,5 C 8,9 C 6,7 C 99 % 1011,7 hPa 0,0 l/m 0 min 0 min 116 W/m 6,4 km/h (2 Bft) 100,00 %
21.12.2022 12:40 8,6 C 9,4 C 6,7 C 99 % 1011,6 hPa 0,0 l/m 0 min 0 min 110 W/m 9,7 km/h (2 Bft) 100,00 %
21.12.2022 12:42 8,6 C 9,4 C 6,7 C 100 % 1011,7 hPa 0,0 l/m 0 min 0 min 114 W/m 12,9 km/h (3 Bft) 100,00 %
21.12.2022 12:44 8,6 C 9,4 C 6,7 C 100 % 1011,7 hPa 0,0 l/m 0 min 0 min 118 W/m 22,5 km/h (4 Bft) 97,87 %
21.12.2022 12:46 8,6 C 9,4 C 6,7 C 100 % 1011,7 hPa 0,0 l/m 0 min 0 min 118 W/m 22,5 km/h (4 Bft) 97,87 %
21.12.2022 12:48 8,6 C 8,9 C 6,7 C 100 % 1011,6 hPa 0,0 l/m 0 min 0 min 116 W/m 19,3 km/h (3 Bft) 97,87 %
21.12.2022 12:50 8,6 C 9,4 C 6,7 C 99 % 1011,8 hPa 0,0 l/m 0 min 0 min 115 W/m 12,9 km/h (3 Bft) 97,87 %
21.12.2022 12:52 8,6 C 9,4 C 6,7 C 99 % 1011,7 hPa 0,0 l/m 0 min 0 min 121 W/m 19,3 km/h (3 Bft) 97,83 %
21.12.2022 12:54 8,6 C 8,9 C 6,7 C 99 % 1011,7 hPa 0,0 l/m 0 min 0 min 123 W/m 19,3 km/h (3 Bft) 97,87 %
21.12.2022 12:56 8,6 C 8,9 C 6,7 C 99 % 1011,7 hPa 0,0 l/m 0 min 0 min 104 W/m 19,3 km/h (3 Bft) 97,87 %
21.12.2022 12:58 8,6 C 8,9 C 6,1 C 99 % 1011,6 hPa 0,0 l/m 0 min 0 min 98 W/m 22,5 km/h (4 Bft) 97,87 %
21.12.2022 13:00 8,6 C 8,9 C 6,7 C 99 % 1011,6 hPa 0,0 l/m 0 min 0 min 93 W/m 16,1 km/h (3 Bft) 95,74 %
21.12.2022 13:02 8,6 C 8,9 C 6,1 C 99 % 1011,7 hPa 0,0 l/m 0 min 0 min 77 W/m 16,1 km/h (3 Bft) 97,87 %
21.12.2022 13:04 8,6 C 8,9 C 6,1 C 99 % 1011,6 hPa 0,0 l/m 0 min 0 min 68 W/m 19,3 km/h (3 Bft) 97,87 %
21.12.2022 13:06 8,6 C 8,9 C 6,7 C 99 % 1011,6 hPa 0,0 l/m 0 min 0 min 74 W/m 19,3 km/h (3 Bft) 95,65 %
21.12.2022 13:08 8,6 C 8,9 C 6,7 C 99 % 1011,6 hPa 0,0 l/m 0 min 0 min 82 W/m 16,1 km/h (3 Bft) 97,87 %
21.12.2022 13:10 8,6 C 8,9 C 6,7 C 99 % 1011,5 hPa 0,0 l/m 0 min 0 min 93 W/m 12,9 km/h (3 Bft) 95,74 %
21.12.2022 13:12 8,6 C 8,9 C 6,7 C 99 % 1011,5 hPa 0,0 l/m 0 min 0 min 99 W/m 25,7 km/h (4 Bft) 97,87 %
21.12.2022 13:14 8,6 C 8,9 C 6,1 C 99 % 1011,4 hPa 0,0 l/m 0 min 0 min 102 W/m 16,1 km/h (3 Bft) 97,87 %
21.12.2022 13:16 8,6 C 8,9 C 6,1 C 99 % 1011,5 hPa 0,0 l/m 0 min 0 min 97 W/m 19,3 km/h (3 Bft) 97,87 %
21.12.2022 13:18 8,6 C 8,9 C 6,1 C 99 % 1011,5 hPa 0,0 l/m 0 min 0 min 96 W/m 19,3 km/h (3 Bft) 97,87 %
21.12.2022 13:20 8,6 C 8,9 C 6,1 C 98 % 1011,5 hPa 0,0 l/m 0 min 0 min 97 W/m 19,3 km/h (3 Bft) 95,65 %
21.12.2022 13:22 8,6 C 8,9 C 6,1 C 98 % 1011,5 hPa 0,0 l/m 0 min 0 min 99 W/m 12,9 km/h (3 Bft) 95,74 %
21.12.2022 13:24 8,7 C 8,9 C 6,1 C 98 % 1011,5 hPa 0,0 l/m 0 min 0 min 119 W/m 16,1 km/h (3 Bft) 95,74 %
21.12.2022 13:26 8,7 C 8,9 C 6,1 C 98 % 1011,5 hPa 0,0 l/m 0 min 0 min 115 W/m 12,9 km/h (3 Bft) 93,62 %
21.12.2022 13:28 8,7 C 9,4 C 6,1 C 98 % 1011,5 hPa 0,0 l/m 0 min 0 min 119 W/m 12,9 km/h (3 Bft) 95,74 %
21.12.2022 13:30 8,7 C 9,4 C 6,1 C 98 % 1011,5 hPa 0,0 l/m 0 min 0 min 108 W/m 12,9 km/h (3 Bft) 95,74 %
21.12.2022 13:32 8,7 C 9,4 C 6,1 C 98 % 1011,5 hPa 0,0 l/m 0 min 0 min 108 W/m 16,1 km/h (3 Bft) 91,30 %
21.12.2022 13:34 8,8 C 9,4 C 6,1 C 98 % 1011,5 hPa 0,0 l/m 0 min 0 min 117 W/m 16,1 km/h (3 Bft) 93,62 %
21.12.2022 13:36 8,8 C 9,4 C 6,1 C 98 % 1011,4 hPa 0,0 l/m 0 min 0 min 110 W/m 9,7 km/h (2 Bft) 95,74 %
21.12.2022 13:38 8,8 C 9,4 C 6,1 C 98 % 1011,5 hPa 0,0 l/m 0 min 0 min 106 W/m 16,1 km/h (3 Bft) 93,62 %
21.12.2022 13:40 8,8 C 8,9 C 6,1 C 98 % 1011,5 hPa 0,0 l/m 0 min 0 min 104 W/m 16,1 km/h (3 Bft) 91,49 %
21.12.2022 13:42 8,8 C 8,9 C 6,1 C 98 % 1011,4 hPa 0,0 l/m 0 min 0 min 102 W/m 19,3 km/h (3 Bft) 93,62 %
21.12.2022 13:44 8,8 C 8,9 C 6,1 C 97 % 1011,3 hPa 0,0 l/m 0 min 0 min 102 W/m 29,0 km/h (5 Bft) 93,62 %
21.12.2022 13:46 8,8 C 8,9 C 6,1 C 97 % 1011,3 hPa 0,0 l/m 0 min 0 min 101 W/m 16,1 km/h (3 Bft) 95,65 %
21.12.2022 13:48 8,8 C 8,9 C 6,1 C 97 % 1011,3 hPa 0,0 l/m 0 min 0 min 100 W/m 16,1 km/h (3 Bft) 95,74 %
21.12.2022 13:50 8,8 C 8,9 C 6,1 C 97 % 1011,3 hPa 0,0 l/m 0 min 0 min 103 W/m 19,3 km/h (3 Bft) 95,74 %
21.12.2022 13:52 8,8 C 8,9 C 6,1 C 97 % 1011,3 hPa 0,0 l/m 0 min 0 min 111 W/m 12,9 km/h (3 Bft) 95,74 %
21.12.2022 13:54 8,8 C 8,9 C 6,1 C 97 % 1011,3 hPa 0,0 l/m 0 min 0 min 106 W/m 19,3 km/h (3 Bft) 95,74 %
21.12.2022 13:56 8,8 C 8,9 C 6,1 C 97 % 1011,3 hPa 0,0 l/m 0 min 0 min 99 W/m 16,1 km/h (3 Bft) 95,74 %
21.12.2022 13:58 8,8 C 8,9 C 6,1 C 97 % 1011,2 hPa 0,0 l/m 0 min 0 min 92 W/m 16,1 km/h (3 Bft) 95,65 %
21.12.2022 14:00 8,8 C 8,9 C 6,1 C 97 % 1011,2 hPa 0,0 l/m 0 min 0 min 88 W/m 12,9 km/h (3 Bft) 95,74 %
21.12.2022 14:02 8,8 C 8,9 C 6,1 C 96 % 1011,1 hPa 0,0 l/m 0 min 0 min 91 W/m 22,5 km/h (4 Bft) 93,62 %
21.12.2022 14:04 8,8 C 8,9 C 6,1 C 96 % 1011,1 hPa 0,0 l/m 0 min 0 min 81 W/m 16,1 km/h (3 Bft) 95,74 %
21.12.2022 14:06 8,8 C 8,9 C 6,1 C 96 % 1011,2 hPa 0,0 l/m 0 min 0 min 69 W/m 16,1 km/h (3 Bft) 95,74 %
21.12.2022 14:08 8,9 C 8,9 C 6,1 C 96 % 1011,2 hPa 0,0 l/m 0 min 0 min 66 W/m 16,1 km/h (3 Bft) 100,00 %
21.12.2022 14:10 8,9 C 8,9 C 6,1 C 96 % 1011,2 hPa 0,0 l/m 0 min 0 min 70 W/m 9,7 km/h (2 Bft) 95,74 %
21.12.2022 14:12 8,9 C 8,9 C 6,1 C 96 % 1011,2 hPa 0,0 l/m 0 min 0 min 70 W/m 22,5 km/h (4 Bft) 95,65 %
21.12.2022 14:14 8,9 C 8,9 C 6,1 C 96 % 1011,2 hPa 0,0 l/m 0 min 0 min 70 W/m 19,3 km/h (3 Bft) 97,87 %
21.12.2022 14:16 8,9 C 8,9 C 6,1 C 95 % 1011,1 hPa 0,0 l/m 0 min 0 min 73 W/m 12,9 km/h (3 Bft) 100,00 %
21.12.2022 14:18 8,9 C 8,9 C 6,1 C 95 % 1011,2 hPa 0,0 l/m 0 min 0 min 75 W/m 19,3 km/h (3 Bft) 100,00 %
21.12.2022 14:20 8,9 C 8,9 C 6,1 C 95 % 1011,2 hPa 0,0 l/m 0 min 0 min 77 W/m 16,1 km/h (3 Bft) 95,74 %
21.12.2022 14:22 8,9 C 8,9 C 6,1 C 95 % 1011,1 hPa 0,0 l/m 0 min 0 min 80 W/m 9,7 km/h (2 Bft) 100,00 %
21.12.2022 14:24 9,0 C 8,9 C 6,1 C 95 % 1011,1 hPa 0,0 l/m 0 min 0 min 81 W/m 16,1 km/h (3 Bft) 100,00 %
21.12.2022 14:26 9,0 C 8,9 C 6,1 C 95 % 1011,0 hPa 0,0 l/m 0 min 0 min 81 W/m 12,9 km/h (3 Bft) 100,00 %
21.12.2022 14:28 9,0 C 8,9 C 6,1 C 95 % 1011,0 hPa 0,0 l/m 0 min 0 min 78 W/m 12,9 km/h (3 Bft) 100,00 %
21.12.2022 14:30 9,0 C 8,9 C 6,1 C 95 % 1011,0 hPa 0,0 l/m 0 min 0 min 76 W/m 12,9 km/h (3 Bft) 97,87 %
21.12.2022 14:32 9,0 C 8,9 C 6,1 C 95 % 1011,0 hPa 0,0 l/m 0 min 0 min 74 W/m 12,9 km/h (3 Bft) 100,00 %
21.12.2022 14:34 9,0 C 8,9 C 6,1 C 95 % 1010,9 hPa 0,0 l/m 0 min 0 min 75 W/m 19,3 km/h (3 Bft) 100,00 %
21.12.2022 14:36 9,1 C 8,9 C 6,1 C 94 % 1011,0 hPa 0,0 l/m 0 min 0 min 77 W/m 12,9 km/h (3 Bft) 100,00 %
21.12.2022 14:38 9,1 C 8,9 C 6,1 C 94 % 1010,9 hPa 0,0 l/m 0 min 0 min 77 W/m 9,7 km/h (2 Bft) 100,00 %
21.12.2022 14:40 9,1 C 8,9 C 6,1 C 94 % 1010,9 hPa 0,0 l/m 0 min 0 min 78 W/m 6,4 km/h (2 Bft) 100,00 %
21.12.2022 14:42 9,1 C 8,9 C 6,1 C 94 % 1011,0 hPa 0,0 l/m 0 min 0 min 80 W/m 12,9 km/h (3 Bft) 100,00 %
21.12.2022 14:44 9,1 C 8,9 C 6,1 C 94 % 1011,0 hPa 0,0 l/m 0 min 0 min 83 W/m 16,1 km/h (3 Bft) 93,62 %
21.12.2022 14:46 9,1 C 8,9 C 6,1 C 94 % 1011,0 hPa 0,0 l/m 0 min 0 min 91 W/m 12,9 km/h (3 Bft) 95,74 %
21.12.2022 14:48 9,1 C 8,9 C 6,1 C 94 % 1010,9 hPa 0,0 l/m 0 min 0 min 85 W/m 9,7 km/h (2 Bft) 100,00 %
21.12.2022 14:50 9,1 C 8,9 C 6,1 C 94 % 1010,9 hPa 0,0 l/m 0 min 0 min 77 W/m 12,9 km/h (3 Bft) 100,00 %
21.12.2022 14:52 9,1 C 8,9 C 6,1 C 94 % 1010,9 hPa 0,0 l/m 0 min 0 min 75 W/m 12,9 km/h (3 Bft) 100,00 %
21.12.2022 14:54 9,2 C 8,9 C 6,1 C 94 % 1010,9 hPa 0,0 l/m 0 min 0 min 67 W/m 16,1 km/h (3 Bft) 100,00 %
21.12.2022 14:56 9,2 C 8,9 C 6,1 C 94 % 1010,9 hPa 0,0 l/m 0 min 0 min 61 W/m 16,1 km/h (3 Bft) 100,00 %
21.12.2022 14:58 9,2 C 8,9 C 6,1 C 94 % 1010,9 hPa 0,0 l/m 0 min 0 min 58 W/m 6,4 km/h (2 Bft) 100,00 %
21.12.2022 15:00 9,2 C 8,9 C 6,1 C 94 % 1010,9 hPa 0,0 l/m 0 min 0 min 56 W/m 3,2 km/h (1 Bft) 97,87 %
21.12.2022 15:02 9,2 C 8,9 C 6,1 C 94 % 1010,9 hPa 0,0 l/m 0 min 0 min 54 W/m 3,2 km/h (1 Bft) 100,00 %
21.12.2022 15:04 9,2 C 8,9 C 6,1 C 94 % 1010,9 hPa 0,0 l/m 0 min 0 min 54 W/m 6,4 km/h (2 Bft) 100,00 %
21.12.2022 15:06 9,2 C 8,9 C 6,1 C 94 % 1010,9 hPa 0,0 l/m 0 min 0 min 56 W/m 9,7 km/h (2 Bft) 100,00 %
21.12.2022 15:08 9,2 C 8,9 C 6,1 C 94 % 1010,8 hPa 0,0 l/m 0 min 0 min 53 W/m 3,2 km/h (1 Bft) 100,00 %
21.12.2022 15:10 9,2 C 8,9 C 6,1 C 94 % 1010,8 hPa 0,0 l/m 0 min 0 min 50 W/m 6,4 km/h (2 Bft) 100,00 %
21.12.2022 15:12 9,2 C 8,9 C 6,1 C 94 % 1010,8 hPa 0,0 l/m 0 min 0 min 48 W/m 6,4 km/h (2 Bft) 100,00 %
21.12.2022 15:14 9,2 C 8,9 C 6,1 C 94 % 1010,8 hPa 0,0 l/m 0 min 0 min 49 W/m 6,4 km/h (2 Bft) 100,00 %
21.12.2022 15:16 9,2 C 8,9 C 6,1 C 93 % 1010,7 hPa 0,0 l/m 0 min 0 min 49 W/m 3,2 km/h (1 Bft) 97,83 %
21.12.2022 15:18 9,2 C 8,9 C 6,1 C 93 % 1010,8 hPa 0,0 l/m 0 min 0 min 48 W/m 6,4 km/h (2 Bft) 97,87 %
21.12.2022 15:20 9,2 C 8,9 C 6,1 C 93 % 1010,7 hPa 0,0 l/m 0 min 0 min 46 W/m 3,2 km/h (1 Bft) 97,87 %
21.12.2022 15:22 9,2 C 8,9 C 6,1 C 93 % 1010,7 hPa 0,0 l/m 0 min 0 min 45 W/m 6,4 km/h (2 Bft) 97,87 %
21.12.2022 15:24 9,2 C 8,9 C 6,1 C 93 % 1010,7 hPa 0,0 l/m 0 min 0 min 44 W/m 9,7 km/h (2 Bft) 97,87 %
21.12.2022 15:26 9,2 C 8,9 C 6,1 C 93 % 1010,7 hPa 0,0 l/m 0 min 0 min 45 W/m 3,2 km/h (1 Bft) 100,00 %
21.12.2022 15:28 9,2 C 8,3 C 6,1 C 93 % 1010,7 hPa 0,0 l/m 0 min 0 min 46 W/m 9,7 km/h (2 Bft) 97,83 %
21.12.2022 15:30 9,2 C 8,3 C 5,6 C 93 % 1010,7 hPa 0,0 l/m 0 min 0 min 46 W/m 6,4 km/h (2 Bft) 95,74 %
21.12.2022 15:32 9,1 C 8,3 C 5,6 C 93 % 1010,7 hPa 0,0 l/m 0 min 0 min 43 W/m 3,2 km/h (1 Bft) 97,87 %
21.12.2022 15:34 9,1 C 8,3 C 5,6 C 93 % 1010,7 hPa 0,0 l/m 0 min 0 min 40 W/m 6,4 km/h (2 Bft) 93,62 %
21.12.2022 15:36 9,1 C 8,3 C 5,6 C 93 % 1010,7 hPa 0,0 l/m 0 min 0 min 37 W/m 6,4 km/h (2 Bft) 95,74 %
21.12.2022 15:38 9,1 C 8,3 C 5,6 C 93 % 1010,7 hPa 0,0 l/m 0 min 0 min 35 W/m 9,7 km/h (2 Bft) 95,74 %
21.12.2022 15:40 9,1 C 8,3 C 5,6 C 93 % 1010,7 hPa 0,0 l/m 0 min 0 min 36 W/m 6,4 km/h (2 Bft) 91,49 %
21.12.2022 15:42 9,1 C 8,3 C 5,6 C 93 % 1010,7 hPa 0,0 l/m 0 min 0 min 39 W/m 3,2 km/h (1 Bft) 95,65 %
21.12.2022 15:44 9,1 C 8,3 C 5,6 C 93 % 1010,6 hPa 0,0 l/m 0 min 0 min 40 W/m 3,2 km/h (1 Bft) 96,30 %
21.12.2022 15:46 9,1 C 8,3 C 5,6 C 93 % 1010,7 hPa 0,0 l/m 2 min 0 min 41 W/m 9,7 km/h (2 Bft) 93,62 %
21.12.2022 15:48 9,1 C 8,3 C 5,6 C 93 % 1010,7 hPa 0,0 l/m 2 min 0 min 40 W/m 9,7 km/h (2 Bft) 95,74 %
21.12.2022 15:50 9,1 C 8,3 C 5,6 C 93 % 1010,6 hPa 0,0 l/m 2 min 0 min 36 W/m 6,4 km/h (2 Bft) 95,74 %
21.12.2022 15:52 9,0 C 8,3 C 5,6 C 93 % 1010,6 hPa 0,0 l/m 0 min 0 min 32 W/m 6,4 km/h (2 Bft) 93,62 %
21.12.2022 15:54 9,0 C 8,3 C 5,6 C 93 % 1010,6 hPa 0,0 l/m 0 min 0 min 30 W/m 6,4 km/h (2 Bft) 95,65 %
21.12.2022 15:56 9,0 C 8,3 C 5,6 C 93 % 1010,6 hPa 0,0 l/m 0 min 0 min 27 W/m 16,1 km/h (3 Bft) 95,74 %
21.12.2022 15:58 9,0 C 8,3 C 5,6 C 93 % 1010,6 hPa 0,0 l/m 0 min 0 min 23 W/m 9,7 km/h (2 Bft) 93,62 %
21.12.2022 16:00 8,9 C 8,3 C 5,6 C 93 % 1010,6 hPa 0,0 l/m 0 min 0 min 20 W/m 12,9 km/h (3 Bft) 95,74 %
21.12.2022 16:02 8,9 C 8,3 C 5,6 C 93 % 1010,6 hPa 0,0 l/m 0 min 0 min 18 W/m 9,7 km/h (2 Bft) 93,62 %
21.12.2022 16:04 8,9 C 8,3 C 5,6 C 93 % 1010,6 hPa 0,0 l/m 0 min 0 min 17 W/m 12,9 km/h (3 Bft) 95,74 %
21.12.2022 16:06 8,9 C 8,3 C 5,6 C 93 % 1010,6 hPa 0,0 l/m 0 min 0 min 16 W/m 9,7 km/h (2 Bft) 95,65 %
21.12.2022 16:08 8,9 C 8,3 C 5,6 C 93 % 1010,5 hPa 0,0 l/m 0 min 0 min 16 W/m 12,9 km/h (3 Bft) 97,87 %
21.12.2022 16:10 8,9 C 8,3 C 5,6 C 92 % 1010,5 hPa 0,0 l/m 0 min 0 min 14 W/m 12,9 km/h (3 Bft) 95,74 %
21.12.2022 16:12 8,9 C 8,3 C 5,6 C 92 % 1010,5 hPa 0,0 l/m 0 min 0 min 12 W/m 12,9 km/h (3 Bft) 97,87 %
21.12.2022 16:14 8,9 C 8,3 C 5,6 C 92 % 1010,4 hPa 0,0 l/m 0 min 0 min 11 W/m 6,4 km/h (2 Bft) 95,74 %
21.12.2022 16:16 8,8 C 8,3 C 5,6 C 92 % 1010,4 hPa 0,0 l/m 0 min 0 min 11 W/m 3,2 km/h (1 Bft) 95,74 %
21.12.2022 16:18 8,8 C 8,3 C 5,6 C 92 % 1010,4 hPa 0,0 l/m 0 min 0 min 10 W/m 9,7 km/h (2 Bft) 97,22 %
21.12.2022 16:20 8,8 C 8,3 C 5,0 C 92 % 1010,4 hPa 0,0 l/m 0 min 0 min 9 W/m 3,2 km/h (1 Bft) 97,87 %
21.12.2022 16:22 8,8 C 8,3 C 5,0 C 92 % 1010,5 hPa 0,0 l/m 0 min 0 min 8 W/m 16,1 km/h (3 Bft) 93,48 %
21.12.2022 16:24 8,8 C 8,3 C 5,0 C 92 % 1010,4 hPa 0,0 l/m 0 min 0 min 7 W/m 12,9 km/h (3 Bft) 95,74 %
21.12.2022 16:26 8,8 C 7,8 C 5,0 C 92 % 1010,4 hPa 0,0 l/m 0 min 0 min 6 W/m 6,4 km/h (2 Bft) 97,87 %
21.12.2022 16:28 8,8 C 7,8 C 5,0 C 92 % 1010,4 hPa 0,0 l/m 0 min 0 min 5 W/m 9,7 km/h (2 Bft) 97,87 %
21.12.2022 16:30 8,8 C 7,8 C 5,0 C 92 % 1010,4 hPa 0,0 l/m 0 min 0 min 2 W/m 6,4 km/h (2 Bft) 97,87 %
21.12.2022 16:32 8,7 C 7,8 C 5,0 C 92 % 1010,4 hPa 0,0 l/m 0 min 0 min 0 W/m 6,4 km/h (2 Bft) 97,87 %
21.12.2022 16:34 8,7 C 7,8 C 5,0 C 91 % 1010,4 hPa 0,0 l/m 0 min 0 min 0 W/m 3,2 km/h (1 Bft) 97,83 %
21.12.2022 16:36 8,7 C 7,8 C 5,0 C 91 % 1010,4 hPa 0,0 l/m 0 min 0 min 0 W/m 6,4 km/h (2 Bft) 95,74 %
21.12.2022 16:38 8,7 C 7,8 C 5,0 C 91 % 1010,4 hPa 0,0 l/m 0 min 0 min 0 W/m 6,4 km/h (2 Bft) 97,87 %
21.12.2022 16:40 8,7 C 7,8 C 5,0 C 91 % 1010,4 hPa 0,0 l/m 0 min 0 min 0 W/m 3,2 km/h (1 Bft) 91,49 %
21.12.2022 16:42 8,7 C 7,8 C 5,0 C 91 % 1010,4 hPa 0,0 l/m 0 min 0 min 0 W/m 9,7 km/h (2 Bft) 97,87 %
21.12.2022 16:44 8,6 C 7,8 C 5,0 C 91 % 1010,4 hPa 0,0 l/m 0 min 0 min 0 W/m 12,9 km/h (3 Bft) 97,87 %
21.12.2022 16:50 8,6 C 7,8 C 5,0 C 91 % 1010,3 hPa 0,0 l/m 0 min 0 min 0 W/m 9,7 km/h (2 Bft) 100,00 %
21.12.2022 16:52 8,6 C 7,8 C 5,0 C 91 % 1010,3 hPa 0,0 l/m 0 min 0 min 0 W/m 9,7 km/h (2 Bft) 94,29 %
21.12.2022 16:54 8,5 C 7,8 C 5,0 C 91 % 1010,3 hPa 0,0 l/m 0 min 0 min 0 W/m 3,2 km/h (1 Bft) 95,74 %
21.12.2022 16:56 8,5 C 7,2 C 5,0 C 91 % 1010,2 hPa 0,0 l/m 0 min 0 min 0 W/m 6,4 km/h (2 Bft) 93,62 %
21.12.2022 16:58 8,4 C 7,2 C 5,0 C 91 % 1010,2 hPa 0,0 l/m 0 min 0 min 0 W/m 6,4 km/h (2 Bft) 97,87 %
21.12.2022 17:00 8,4 C 7,2 C 5,0 C 91 % 1010,2 hPa 0,0 l/m 0 min 0 min 0 W/m 6,4 km/h (2 Bft) 97,83 %
21.12.2022 17:02 8,4 C 7,2 C 5,0 C 91 % 1010,1 hPa 0,0 l/m 0 min 0 min 0 W/m 3,2 km/h (1 Bft) 97,87 %
21.12.2022 17:04 8,4 C 7,2 C 5,0 C 91 % 1010,0 hPa 0,0 l/m 0 min 0 min 0 W/m 3,2 km/h (1 Bft) 95,74 %
21.12.2022 17:06 8,4 C 7,2 C 5,0 C 91 % 1010,1 hPa 0,0 l/m 0 min 0 min 0 W/m 3,2 km/h (1 Bft) 98,31 %
21.12.2022 17:08 8,3 C 7,2 C 5,0 C 91 % 1010,0 hPa 0,0 l/m 0 min 0 min 0 W/m 3,2 km/h (1 Bft) 97,14 %
21.12.2022 17:10 8,3 C 7,2 C 5,0 C 91 % 1010,0 hPa 0,0 l/m 0 min 0 min 0 W/m 3,2 km/h (1 Bft) 95,74 %
21.12.2022 17:12 8,3 C 7,2 C 5,0 C 91 % 1009,9 hPa 0,0 l/m 0 min 0 min 0 W/m 6,4 km/h (2 Bft) 97,83 %
21.12.2022 17:14 8,3 C 7,2 C 5,0 C 91 % 1009,9 hPa 0,0 l/m 0 min 0 min 0 W/m 3,2 km/h (1 Bft) 100,00 %
21.12.2022 17:16 8,3 C 7,2 C 5,0 C 91 % 1009,9 hPa 0,0 l/m 0 min 0 min 0 W/m 6,4 km/h (2 Bft) 93,62 %
21.12.2022 17:18 8,2 C 7,2 C 5,0 C 91 % 1009,9 hPa 0,0 l/m 0 min 0 min 0 W/m 6,4 km/h (2 Bft) 100,00 %
21.12.2022 17:20 8,2 C 7,2 C 5,0 C 91 % 1009,8 hPa 0,0 l/m 0 min 0 min 0 W/m 9,7 km/h (2 Bft) 97,87 %
21.12.2022 17:22 8,2 C 7,2 C 5,0 C 91 % 1009,8 hPa 0,0 l/m 0 min 0 min 0 W/m 6,4 km/h (2 Bft) 97,87 %
21.12.2022 17:24 8,2 C 7,2 C 5,0 C 91 % 1009,8 hPa 0,0 l/m 0 min 0 min 0 W/m 6,4 km/h (2 Bft) 100,00 %
21.12.2022 17:26 8,2 C 7,2 C 5,0 C 91 % 1009,8 hPa 0,0 l/m 0 min 0 min 0 W/m 6,4 km/h (2 Bft) 55,56 %
21.12.2022 17:28 8,2 C 7,2 C 5,0 C 91 % 1009,8 hPa 0,0 l/m 0 min 0 min 0 W/m 3,2 km/h (1 Bft) 97,87 %
21.12.2022 17:30 8,1 C 7,2 C 5,0 C 91 % 1009,8 hPa 0,0 l/m 0 min 0 min 0 W/m 6,4 km/h (2 Bft) 95,74 %
21.12.2022 17:32 8,1 C 7,2 C 5,0 C 91 % 1009,8 hPa 0,0 l/m 0 min 0 min 0 W/m 12,9 km/h (3 Bft) 97,87 %
21.12.2022 17:34 8,1 C 7,2 C 5,0 C 91 % 1009,8 hPa 0,0 l/m 0 min 0 min 0 W/m 6,4 km/h (2 Bft) 97,87 %
21.12.2022 17:36 8,1 C 7,2 C 5,0 C 91 % 1009,8 hPa 0,0 l/m 0 min 0 min 0 W/m 3,2 km/h (1 Bft) 97,87 %
21.12.2022 17:38 8,1 C 7,2 C 5,0 C 92 % 1009,7 hPa 0,0 l/m 0 min 0 min 0 W/m 3,2 km/h (1 Bft) 95,65 %
21.12.2022 17:40 8,1 C 7,2 C 5,0 C 92 % 1009,7 hPa 0,0 l/m 0 min 0 min 0 W/m 3,2 km/h (1 Bft) 93,62 %
21.12.2022 17:42 8,1 C 7,2 C 5,0 C 92 % 1009,7 hPa 0,0 l/m 0 min 0 min 0 W/m 3,2 km/h (1 Bft) 95,74 %
21.12.2022 17:44 8,0 C 7,2 C 5,0 C 92 % 1009,7 hPa 0,0 l/m 0 min 0 min 0 W/m 6,4 km/h (2 Bft) 97,87 %
21.12.2022 17:46 8,0 C 7,2 C 4,4 C 92 % 1009,7 hPa 0,0 l/m 0 min 0 min 0 W/m 3,2 km/h (1 Bft) 95,74 %
21.12.2022 17:48 8,0 C 7,2 C 4,4 C 92 % 1009,7 hPa 0,0 l/m 0 min 0 min 0 W/m 0,0 km/h (0 Bft) 95,74 %
21.12.2022 17:50 7,9 C 7,2 C 4,4 C 92 % 1009,7 hPa 0,0 l/m 0 min 0 min 0 W/m 3,2 km/h (1 Bft) 97,87 %
21.12.2022 17:52 7,9 C 7,2 C 4,4 C 92 % 1009,7 hPa 0,0 l/m 0 min 0 min 0 W/m 0,0 km/h (0 Bft) 95,65 %
21.12.2022 17:54 7,9 C 7,2 C 4,4 C 92 % 1009,7 hPa 0,0 l/m 0 min 0 min 0 W/m 6,4 km/h (2 Bft) 95,74 %
21.12.2022 17:56 7,9 C 7,2 C 4,4 C 92 % 1009,6 hPa 0,0 l/m 0 min 0 min 0 W/m 3,2 km/h (1 Bft) 95,74 %
21.12.2022 17:58 7,9 C 7,2 C 4,4 C 92 % 1009,7 hPa 0,0 l/m 0 min 0 min 0 W/m 3,2 km/h (1 Bft) 95,74 %
21.12.2022 18:00 7,9 C 7,2 C 4,4 C 92 % 1009,7 hPa 0,0 l/m 0 min 0 min 0 W/m 0,0 km/h (0 Bft) 97,87 %
21.12.2022 18:02 7,9 C 7,2 C 4,4 C 92 % 1009,6 hPa 0,0 l/m 0 min 0 min 0 W/m 0,0 km/h (0 Bft) 95,74 %
21.12.2022 18:04 7,8 C 7,2 C 4,4 C 92 % 1009,6 hPa 0,0 l/m 0 min 0 min 0 W/m 3,2 km/h (1 Bft) 97,83 %
21.12.2022 18:08 7,8 C 7,2 C 4,4 C 92 % 1009,6 hPa 0,0 l/m 0 min 0 min 0 W/m 6,4 km/h (2 Bft) 95,83 %
21.12.2022 18:10 7,8 C 7,2 C 4,4 C 92 % 1009,5 hPa 0,0 l/m 0 min 0 min 0 W/m 6,4 km/h (2 Bft) 95,74 %
21.12.2022 18:12 7,8 C 7,2 C 4,4 C 92 % 1009,5 hPa 0,0 l/m 0 min 0 min 0 W/m 6,4 km/h (2 Bft) 97,87 %
21.12.2022 18:14 7,8 C 7,2 C 4,4 C 92 % 1009,4 hPa 0,0 l/m 0 min 0 min 0 W/m 6,4 km/h (2 Bft) 97,87 %
21.12.2022 18:16 7,8 C 7,2 C 4,4 C 92 % 1009,4 hPa 0,0 l/m 0 min 0 min 0 W/m 6,4 km/h (2 Bft) 97,83 %
21.12.2022 18:18 7,8 C 7,2 C 4,4 C 92 % 1009,3 hPa 0,0 l/m 0 min 0 min 0 W/m 3,2 km/h (1 Bft) 97,87 %
21.12.2022 18:20 7,8 C 7,2 C 4,4 C 92 % 1009,3 hPa 0,0 l/m 0 min 0 min 0 W/m 6,4 km/h (2 Bft) 95,74 %
21.12.2022 18:22 7,8 C 7,2 C 5,0 C 92 % 1009,3 hPa 0,0 l/m 0 min 0 min 0 W/m 3,2 km/h (1 Bft) 93,62 %
21.12.2022 18:24 7,7 C 7,2 C 5,0 C 92 % 1009,3 hPa 0,0 l/m 0 min 0 min 0 W/m 6,4 km/h (2 Bft) 97,87 %
21.12.2022 18:26 7,7 C 7,2 C 5,0 C 92 % 1009,2 hPa 0,0 l/m 0 min 0 min 0 W/m 6,4 km/h (2 Bft) 97,87 %
21.12.2022 18:28 7,8 C 7,2 C 5,0 C 92 % 1009,2 hPa 0,0 l/m 0 min 0 min 0 W/m 3,2 km/h (1 Bft) 97,92 %
21.12.2022 18:30 7,7 C 7,2 C 5,0 C 92 % 1009,2 hPa 0,0 l/m 0 min 0 min 0 W/m 3,2 km/h (1 Bft) 97,87 %
21.12.2022 18:32 7,8 C 7,2 C 5,0 C 92 % 1009,2 hPa 0,0 l/m 0 min 0 min 0 W/m 3,2 km/h (1 Bft) 97,87 %
21.12.2022 18:34 7,8 C 7,2 C 5,0 C 92 % 1009,2 hPa 0,0 l/m 0 min 0 min 0 W/m 3,2 km/h (1 Bft) 97,87 %
21.12.2022 18:36 7,8 C 7,2 C 5,0 C 92 % 1009,2 hPa 0,0 l/m 0 min 0 min 0 W/m 0,0 km/h (0 Bft) 97,87 %
21.12.2022 18:38 7,8 C 7,2 C 5,0 C 92 % 1009,3 hPa 0,0 l/m 0 min 0 min 0 W/m 0,0 km/h (0 Bft) 100,00 %
21.12.2022 18:40 7,8 C 7,2 C 5,0 C 92 % 1009,3 hPa 0,0 l/m 0 min 0 min 0 W/m 12,9 km/h (3 Bft) 100,00 %
21.12.2022 18:42 7,8 C 7,2 C 5,0 C 93 % 1009,3 hPa 0,0 l/m 0 min 0 min 0 W/m 12,9 km/h (3 Bft) 100,00 %
21.12.2022 18:44 7,8 C 7,2 C 5,0 C 93 % 1009,2 hPa 0,0 l/m 0 min 0 min 0 W/m 6,4 km/h (2 Bft) 100,00 %
21.12.2022 18:46 7,8 C 7,2 C 5,0 C 93 % 1009,2 hPa 0,0 l/m 0 min 0 min 0 W/m 9,7 km/h (2 Bft) 100,00 %
21.12.2022 18:48 7,8 C 7,2 C 5,0 C 93 % 1009,2 hPa 0,0 l/m 0 min 0 min 0 W/m 6,4 km/h (2 Bft) 100,00 %
21.12.2022 18:50 7,8 C 7,2 C 5,0 C 93 % 1009,2 hPa 0,0 l/m 0 min 0 min 0 W/m 3,2 km/h (1 Bft) 97,87 %
21.12.2022 18:52 7,8 C 7,2 C 5,0 C 93 % 1009,2 hPa 0,0 l/m 0 min 0 min 0 W/m 12,9 km/h (3 Bft) 97,87 %
21.12.2022 18:54 7,8 C 7,2 C 5,0 C 93 % 1009,3 hPa 0,0 l/m 0 min 0 min 0 W/m 3,2 km/h (1 Bft) 100,00 %
21.12.2022 18:56 7,8 C 7,2 C 5,0 C 93 % 1009,3 hPa 0,0 l/m 0 min 2 min 0 W/m 6,4 km/h (2 Bft) 100,00 %
21.12.2022 18:58 7,8 C 7,2 C 5,0 C 93 % 1009,2 hPa 0,0 l/m 0 min 2 min 0 W/m 6,4 km/h (2 Bft) 97,87 %
21.12.2022 19:00 7,9 C 7,2 C 5,0 C 93 % 1009,2 hPa 0,0 l/m 0 min 2 min 0 W/m 3,2 km/h (1 Bft) 97,87 %
21.12.2022 19:02 7,9 C 7,2 C 5,0 C 93 % 1009,2 hPa 0,0 l/m 0 min 2 min 0 W/m 6,4 km/h (2 Bft) 100,00 %
21.12.2022 19:04 7,9 C 7,2 C 5,0 C 93 % 1009,2 hPa 0,0 l/m 0 min 2 min 0 W/m 3,2 km/h (1 Bft) 100,00 %
21.12.2022 19:06 7,9 C 7,2 C 5,0 C 93 % 1009,2 hPa 0,0 l/m 0 min 2 min 0 W/m 12,9 km/h (3 Bft) 100,00 %
21.12.2022 19:08 7,9 C 7,2 C 5,0 C 93 % 1009,2 hPa 0,0 l/m 0 min 0 min 0 W/m 6,4 km/h (2 Bft) 100,00 %
21.12.2022 19:10 7,9 C 7,2 C 5,0 C 93 % 1009,2 hPa 0,0 l/m 0 min 2 min 0 W/m 9,7 km/h (2 Bft) 100,00 %
21.12.2022 19:12 7,9 C 7,2 C 5,0 C 93 % 1009,2 hPa 0,0 l/m 0 min 0 min 0 W/m 12,9 km/h (3 Bft) 100,00 %
21.12.2022 19:14 7,9 C 7,2 C 5,0 C 93 % 1009,1 hPa 0,0 l/m 0 min 2 min 0 W/m 6,4 km/h (2 Bft) 100,00 %
21.12.2022 19:16 8,0 C 7,2 C 5,0 C 93 % 1009,1 hPa 0,0 l/m 0 min 2 min 0 W/m 6,4 km/h (2 Bft) 100,00 %
21.12.2022 19:18 8,0 C 7,2 C 5,0 C 93 % 1009,0 hPa 0,0 l/m 0 min 2 min 0 W/m 6,4 km/h (2 Bft) 97,87 %
21.12.2022 19:20 8,0 C 7,2 C 5,0 C 93 % 1009,1 hPa 0,0 l/m 0 min 0 min 0 W/m 12,9 km/h (3 Bft) 100,00 %
21.12.2022 19:22 8,0 C 7,2 C 5,0 C 93 % 1009,1 hPa 0,0 l/m 0 min 2 min 0 W/m 6,4 km/h (2 Bft) 93,62 %
21.12.2022 19:24 8,0 C 7,2 C 5,0 C 93 % 1009,0 hPa 0,0 l/m 0 min 2 min 0 W/m 9,7 km/h (2 Bft) 93,62 %
21.12.2022 19:26 8,1 C 7,2 C 5,0 C 93 % 1009,0 hPa 0,0 l/m 0 min 2 min 0 W/m 6,4 km/h (2 Bft) 95,74 %
21.12.2022 19:28 8,1 C 7,2 C 5,0 C 93 % 1009,0 hPa 0,0 l/m 0 min 0 min 0 W/m 3,2 km/h (1 Bft) 95,74 %
21.12.2022 19:30 8,1 C 7,2 C 5,0 C 93 % 1008,9 hPa 0,0 l/m 0 min 0 min 0 W/m 6,4 km/h (2 Bft) 93,62 %
21.12.2022 19:32 8,1 C 7,2 C 5,0 C 93 % 1008,9 hPa 0,0 l/m 0 min 0 min 0 W/m 6,4 km/h (2 Bft) 95,56 %
21.12.2022 19:34 8,1 C 7,2 C 5,0 C 93 % 1008,9 hPa 0,0 l/m 0 min 2 min 0 W/m 3,2 km/h (1 Bft) 95,74 %
21.12.2022 19:36 8,1 C 7,2 C 5,0 C 93 % 1008,9 hPa 0,0 l/m 0 min 2 min 0 W/m 3,2 km/h (1 Bft) 95,74 %
21.12.2022 19:38 8,1 C 7,2 C 4,4 C 93 % 1008,9 hPa 0,0 l/m 0 min 2 min 0 W/m 6,4 km/h (2 Bft) 95,74 %
21.12.2022 19:40 8,1 C 7,2 C 4,4 C 93 % 1008,9 hPa 0,0 l/m 0 min 2 min 0 W/m 6,4 km/h (2 Bft) 95,74 %
21.12.2022 19:42 8,0 C 7,2 C 4,4 C 93 % 1008,9 hPa 0,0 l/m 0 min 2 min 0 W/m 6,4 km/h (2 Bft) 95,74 %
21.12.2022 19:44 8,0 C 7,2 C 4,4 C 93 % 1008,9 hPa 0,0 l/m 0 min 2 min 0 W/m 6,4 km/h (2 Bft) 95,74 %
21.12.2022 19:46 8,0 C 7,2 C 4,4 C 94 % 1008,9 hPa 0,2 l/m 0 min 2 min 0 W/m 3,2 km/h (1 Bft) 95,65 %
21.12.2022 19:48 7,9 C 7,2 C 4,4 C 93 % 1008,9 hPa 0,0 l/m 0 min 2 min 0 W/m 3,2 km/h (1 Bft) 93,62 %
21.12.2022 19:50 7,9 C 7,2 C 4,4 C 93 % 1008,9 hPa 0,0 l/m 0 min 2 min 0 W/m 6,4 km/h (2 Bft) 93,62 %
21.12.2022 19:52 7,9 C 6,7 C 4,4 C 93 % 1008,9 hPa 0,0 l/m 0 min 2 min 0 W/m 6,4 km/h (2 Bft) 95,74 %
21.12.2022 19:54 7,9 C 6,7 C 4,4 C 93 % 1008,8 hPa 0,2 l/m 0 min 2 min 0 W/m 6,4 km/h (2 Bft) 95,74 %
21.12.2022 19:56 7,9 C 6,7 C 4,4 C 93 % 1008,8 hPa 0,0 l/m 0 min 2 min 0 W/m 6,4 km/h (2 Bft) 97,87 %
21.12.2022 19:58 7,8 C 6,7 C 4,4 C 94 % 1008,8 hPa 0,0 l/m 0 min 2 min 0 W/m 6,4 km/h (2 Bft) 97,83 %
21.12.2022 20:00 7,8 C 6,7 C 4,4 C 94 % 1008,7 hPa 0,2 l/m 0 min 2 min 0 W/m 12,9 km/h (3 Bft) 97,87 %
21.12.2022 20:02 7,8 C 6,7 C 4,4 C 94 % 1008,8 hPa 0,0 l/m 0 min 2 min 0 W/m 12,9 km/h (3 Bft) 97,87 %
21.12.2022 20:04 7,8 C 6,7 C 4,4 C 94 % 1008,8 hPa 0,0 l/m 0 min 2 min 0 W/m 6,4 km/h (2 Bft) 93,62 %
21.12.2022 20:06 7,8 C 6,7 C 4,4 C 94 % 1008,7 hPa 0,2 l/m 0 min 2 min 0 W/m 6,4 km/h (2 Bft) 97,87 %
21.12.2022 20:08 7,8 C 6,7 C 4,4 C 94 % 1008,7 hPa 0,0 l/m 0 min 2 min 0 W/m 3,2 km/h (1 Bft) 97,87 %
21.12.2022 20:10 7,7 C 6,7 C 4,4 C 94 % 1008,7 hPa 0,0 l/m 0 min 2 min 0 W/m 6,4 km/h (2 Bft) 97,83 %
21.12.2022 20:12 7,7 C 6,7 C 4,4 C 94 % 1008,7 hPa 0,2 l/m 0 min 2 min 0 W/m 12,9 km/h (3 Bft) 95,74 %
21.12.2022 20:14 7,7 C 6,7 C 4,4 C 94 % 1008,6 hPa 0,0 l/m 0 min 2 min 0 W/m 6,4 km/h (2 Bft) 93,62 %
21.12.2022 20:16 7,7 C 6,7 C 4,4 C 94 % 1008,6 hPa 0,0 l/m 0 min 2 min 0 W/m 3,2 km/h (1 Bft) 100,00 %
21.12.2022 20:18 7,7 C 6,7 C 4,4 C 94 % 1008,6 hPa 0,2 l/m 0 min 2 min 0 W/m 6,4 km/h (2 Bft) 97,87 %
21.12.2022 20:20 7,6 C 6,7 C 4,4 C 94 % 1008,5 hPa 0,0 l/m 0 min 2 min 0 W/m 12,9 km/h (3 Bft) 95,74 %
21.12.2022 20:22 7,6 C 6,7 C 4,4 C 94 % 1008,4 hPa 0,0 l/m 0 min 0 min 0 W/m 6,4 km/h (2 Bft) 97,87 %
21.12.2022 20:24 7,6 C 6,7 C 4,4 C 94 % 1008,4 hPa 0,0 l/m 0 min 0 min 0 W/m 9,7 km/h (2 Bft) 97,62 %
21.12.2022 20:26 7,6 C 6,7 C 4,4 C 94 % 1008,3 hPa 0,0 l/m 0 min 2 min 0 W/m 3,2 km/h (1 Bft) 97,83 %
21.12.2022 20:28 7,6 C 6,7 C 4,4 C 95 % 1008,3 hPa 0,0 l/m 0 min 2 min 0 W/m 6,4 km/h (2 Bft) 95,74 %
21.12.2022 20:30 7,6 C 6,7 C 4,4 C 95 % 1008,3 hPa 0,0 l/m 0 min 0 min 0 W/m 6,4 km/h (2 Bft) 98,00 %
21.12.2022 20:32 7,6 C 6,7 C 4,4 C 95 % 1008,2 hPa 0,0 l/m 0 min 2 min 0 W/m 6,4 km/h (2 Bft) 97,87 %
21.12.2022 20:34 7,6 C 6,7 C 4,4 C 95 % 1008,2 hPa 0,0 l/m 0 min 0 min 0 W/m 3,2 km/h (1 Bft) 95,92 %
21.12.2022 20:36 7,5 C 6,7 C 4,4 C 95 % 1008,2 hPa 0,0 l/m 0 min 0 min 0 W/m 12,9 km/h (3 Bft) 97,83 %
21.12.2022 20:38 7,5 C 6,7 C 4,4 C 95 % 1008,2 hPa 0,0 l/m 0 min 0 min 0 W/m 12,9 km/h (3 Bft) 97,87 %
21.12.2022 20:40 7,5 C 6,7 C 4,4 C 95 % 1008,1 hPa 0,0 l/m 0 min 0 min 0 W/m 6,4 km/h (2 Bft) 97,87 %
21.12.2022 20:42 7,5 C 6,7 C 4,4 C 95 % 1008,1 hPa 0,0 l/m 0 min 0 min 0 W/m 16,1 km/h (3 Bft) 97,87 %
21.12.2022 20:44 7,5 C 6,7 C 4,4 C 95 % 1008,1 hPa 0,0 l/m 0 min 0 min 0 W/m 6,4 km/h (2 Bft) 97,87 %
21.12.2022 20:46 7,5 C 6,7 C 4,4 C 95 % 1008,0 hPa 0,0 l/m 0 min 0 min 0 W/m 6,4 km/h (2 Bft) 93,62 %
21.12.2022 20:48 7,5 C 6,7 C 4,4 C 95 % 1008,0 hPa 0,0 l/m 0 min 0 min 0 W/m 12,9 km/h (3 Bft) 95,74 %
21.12.2022 20:50 7,5 C 6,7 C 4,4 C 95 % 1008,0 hPa 0,0 l/m 0 min 0 min 0 W/m 12,9 km/h (3 Bft) 97,83 %
21.12.2022 20:52 7,5 C 6,7 C 4,4 C 95 % 1007,9 hPa 0,0 l/m 0 min 0 min 0 W/m 9,7 km/h (2 Bft) 97,87 %
21.12.2022 20:54 7,4 C 6,7 C 4,4 C 95 % 1007,9 hPa 0,0 l/m 0 min 0 min 0 W/m 12,9 km/h (3 Bft) 97,87 %
21.12.2022 20:56 7,4 C 6,7 C 4,4 C 96 % 1007,9 hPa 0,0 l/m 0 min 0 min 0 W/m 16,1 km/h (3 Bft) 95,74 %
21.12.2022 20:58 7,5 C 6,7 C 4,4 C 96 % 1007,9 hPa 0,0 l/m 0 min 0 min 0 W/m 12,9 km/h (3 Bft) 97,87 %
21.12.2022 21:00 7,5 C 6,7 C 4,4 C 96 % 1007,9 hPa 0,0 l/m 0 min 0 min 0 W/m 6,4 km/h (2 Bft) 100,00 %
21.12.2022 21:02 7,5 C 6,7 C 4,4 C 96 % 1007,9 hPa 0,0 l/m 0 min 0 min 0 W/m 6,4 km/h (2 Bft) 95,65 %
21.12.2022 21:04 7,5 C 6,7 C 4,4 C 96 % 1007,8 hPa 0,0 l/m 0 min 0 min 0 W/m 6,4 km/h (2 Bft) 97,87 %
21.12.2022 21:06 7,5 C 6,7 C 4,4 C 96 % 1007,8 hPa 0,0 l/m 0 min 0 min 0 W/m 6,4 km/h (2 Bft) 100,00 %
21.12.2022 21:08 7,5 C 6,7 C 4,4 C 96 % 1007,9 hPa 0,0 l/m 0 min 0 min 0 W/m 3,2 km/h (1 Bft) 100,00 %
21.12.2022 21:10 7,5 C 6,7 C 4,4 C 96 % 1007,8 hPa 0,0 l/m 0 min 0 min 0 W/m 6,4 km/h (2 Bft) 100,00 %
21.12.2022 21:12 7,5 C 6,7 C 4,4 C 96 % 1007,8 hPa 0,0 l/m 0 min 0 min 0 W/m 6,4 km/h (2 Bft) 97,87 %
21.12.2022 21:14 7,5 C 6,7 C 4,4 C 96 % 1007,9 hPa 0,0 l/m 0 min 0 min 0 W/m 12,9 km/h (3 Bft) 97,83 %
21.12.2022 21:16 7,5 C 6,7 C 4,4 C 96 % 1007,8 hPa 0,0 l/m 0 min 0 min 0 W/m 6,4 km/h (2 Bft) 97,87 %
21.12.2022 21:18 7,5 C 6,7 C 4,4 C 96 % 1007,9 hPa 0,0 l/m 0 min 0 min 0 W/m 12,9 km/h (3 Bft) 97,87 %
21.12.2022 21:20 7,6 C 6,7 C 4,4 C 96 % 1007,8 hPa 0,2 l/m 0 min 0 min 0 W/m 6,4 km/h (2 Bft) 97,87 %
21.12.2022 21:22 7,6 C 6,7 C 4,4 C 96 % 1007,8 hPa 0,0 l/m 0 min 0 min 0 W/m 9,7 km/h (2 Bft) 95,74 %
21.12.2022 21:24 7,6 C 6,7 C 4,4 C 96 % 1007,8 hPa 0,0 l/m 0 min 0 min 0 W/m 12,9 km/h (3 Bft) 97,87 %
21.12.2022 21:26 7,6 C 6,7 C 4,4 C 96 % 1007,8 hPa 0,0 l/m 0 min 0 min 0 W/m 6,4 km/h (2 Bft) 97,87 %
21.12.2022 21:28 7,6 C 6,7 C 4,4 C 96 % 1007,8 hPa 0,0 l/m 0 min 0 min 0 W/m 6,4 km/h (2 Bft) 95,65 %
21.12.2022 21:30 7,6 C 6,7 C 4,4 C 96 % 1007,8 hPa 0,0 l/m 0 min 0 min 0 W/m 6,4 km/h (2 Bft) 97,87 %
21.12.2022 21:32 7,6 C 6,7 C 4,4 C 96 % 1007,7 hPa 0,0 l/m 0 min 0 min 0 W/m 6,4 km/h (2 Bft) 97,87 %
21.12.2022 21:34 7,6 C 6,7 C 4,4 C 96 % 1007,7 hPa 0,0 l/m 0 min 0 min 0 W/m 6,4 km/h (2 Bft) 95,74 %
21.12.2022 21:36 7,6 C 6,7 C 4,4 C 96 % 1007,7 hPa 0,0 l/m 0 min 0 min 0 W/m 6,4 km/h (2 Bft) 95,74 %
21.12.2022 21:38 7,6 C 6,7 C 4,4 C 96 % 1007,7 hPa 0,0 l/m 0 min 0 min 0 W/m 3,2 km/h (1 Bft) 97,87 %
21.12.2022 21:40 7,6 C 6,7 C 4,4 C 97 % 1007,6 hPa 0,0 l/m 0 min 0 min 0 W/m 3,2 km/h (1 Bft) 97,83 %
21.12.2022 21:42 7,6 C 6,7 C 4,4 C 96 % 1007,6 hPa 0,0 l/m 0 min 0 min 0 W/m 3,2 km/h (1 Bft) 97,87 %
21.12.2022 21:44 7,6 C 6,7 C 4,4 C 96 % 1007,6 hPa 0,0 l/m 0 min 0 min 0 W/m 3,2 km/h (1 Bft) 100,00 %
21.12.2022 21:46 7,6 C 6,7 C 4,4 C 96 % 1007,6 hPa 0,0 l/m 0 min 0 min 0 W/m 3,2 km/h (1 Bft) 100,00 %
21.12.2022 21:48 7,6 C 6,7 C 4,4 C 96 % 1007,6 hPa 0,0 l/m 0 min 0 min 0 W/m 12,9 km/h (3 Bft) 100,00 %
21.12.2022 21:50 7,6 C 6,7 C 4,4 C 96 % 1007,6 hPa 0,0 l/m 0 min 0 min 0 W/m 6,4 km/h (2 Bft) 100,00 %
21.12.2022 21:52 7,6 C 6,7 C 4,4 C 97 % 1007,6 hPa 0,0 l/m 0 min 0 min 0 W/m 3,2 km/h (1 Bft) 100,00 %
21.12.2022 21:54 7,6 C 6,7 C 4,4 C 97 % 1007,6 hPa 0,0 l/m 0 min 0 min 0 W/m 6,4 km/h (2 Bft) 100,00 %
21.12.2022 21:56 7,6 C 6,7 C 5,0 C 97 % 1007,6 hPa 0,0 l/m 0 min 0 min 0 W/m 3,2 km/h (1 Bft) 100,00 %
21.12.2022 21:58 7,6 C 6,7 C 5,0 C 97 % 1007,5 hPa 0,0 l/m 0 min 0 min 0 W/m 6,4 km/h (2 Bft) 100,00 %
21.12.2022 22:00 7,6 C 6,7 C 5,0 C 97 % 1007,5 hPa 0,0 l/m 0 min 0 min 0 W/m 6,4 km/h (2 Bft) 97,87 %
21.12.2022 22:02 7,6 C 6,7 C 5,0 C 97 % 1007,5 hPa 0,0 l/m 0 min 0 min 0 W/m 6,4 km/h (2 Bft) 100,00 %
21.12.2022 22:04 7,6 C 6,7 C 5,0 C 97 % 1007,5 hPa 0,0 l/m 0 min 0 min 0 W/m 12,9 km/h (3 Bft) 100,00 %
21.12.2022 22:06 7,6 C 6,7 C 5,0 C 97 % 1007,4 hPa 0,0 l/m 0 min 0 min 0 W/m 12,9 km/h (3 Bft) 100,00 %
21.12.2022 22:08 7,6 C 6,7 C 5,0 C 97 % 1007,4 hPa 0,0 l/m 0 min 0 min 0 W/m 9,7 km/h (2 Bft) 100,00 %
21.12.2022 22:10 7,6 C 6,7 C 5,0 C 97 % 1007,4 hPa 0,0 l/m 0 min 0 min 0 W/m 6,4 km/h (2 Bft) 97,87 %
21.12.2022 22:12 7,6 C 6,7 C 5,0 C 97 % 1007,3 hPa 0,0 l/m 0 min 0 min 0 W/m 6,4 km/h (2 Bft) 100,00 %
21.12.2022 22:14 7,6 C 6,7 C 5,0 C 97 % 1007,3 hPa 0,0 l/m 0 min 0 min 0 W/m 6,4 km/h (2 Bft) 100,00 %
21.12.2022 22:16 7,6 C 6,7 C 5,0 C 97 % 1007,3 hPa 0,0 l/m 0 min 0 min 0 W/m 6,4 km/h (2 Bft) 100,00 %
21.12.2022 22:18 7,6 C 6,7 C 5,0 C 97 % 1007,3 hPa 0,0 l/m 0 min 0 min 0 W/m 6,4 km/h (2 Bft) 100,00 %
21.12.2022 22:20 7,6 C 6,7 C 5,0 C 97 % 1007,3 hPa 0,0 l/m 0 min 0 min 0 W/m 12,9 km/h (3 Bft) 100,00 %
21.12.2022 22:22 7,7 C 6,7 C 5,0 C 97 % 1007,3 hPa 0,0 l/m 0 min 0 min 0 W/m 6,4 km/h (2 Bft) 97,87 %
21.12.2022 22:24 7,7 C 6,7 C 5,0 C 97 % 1007,3 hPa 0,0 l/m 0 min 0 min 0 W/m 6,4 km/h (2 Bft) 100,00 %
21.12.2022 22:26 7,6 C 6,7 C 5,0 C 97 % 1007,3 hPa 0,0 l/m 0 min 0 min 0 W/m 6,4 km/h (2 Bft) 97,87 %
21.12.2022 22:28 7,7 C 6,7 C 5,0 C 97 % 1007,3 hPa 0,0 l/m 0 min 0 min 0 W/m 12,9 km/h (3 Bft) 97,87 %
21.12.2022 22:30 7,7 C 6,7 C 5,0 C 97 % 1007,3 hPa 0,0 l/m 0 min 0 min 0 W/m 6,4 km/h (2 Bft) 97,87 %
21.12.2022 22:32 7,7 C 6,7 C 5,0 C 97 % 1007,3 hPa 0,0 l/m 0 min 0 min 0 W/m 6,4 km/h (2 Bft) 93,62 %
21.12.2022 22:34 7,7 C 6,7 C 5,0 C 97 % 1007,3 hPa 0,0 l/m 0 min 0 min 0 W/m 3,2 km/h (1 Bft) 97,83 %
21.12.2022 22:36 7,6 C 6,7 C 5,0 C 97 % 1007,2 hPa 0,0 l/m 0 min 0 min 0 W/m 3,2 km/h (1 Bft) 95,74 %
21.12.2022 22:38 7,7 C 6,7 C 5,0 C 97 % 1007,2 hPa 0,0 l/m 0 min 0 min 0 W/m 6,4 km/h (2 Bft) 97,87 %
21.12.2022 22:40 7,7 C 6,7 C 5,0 C 97 % 1007,2 hPa 0,0 l/m 0 min 0 min 0 W/m 6,4 km/h (2 Bft) 95,74 %
21.12.2022 22:45 7,7 C 6,7 C 5,0 C 97 % 1007,2 hPa 0,0 l/m 0 min 0 min 0 W/m 6,4 km/h (2 Bft) 97,06 %
21.12.2022 22:46 7,7 C 6,7 C 5,0 C 97 % 1007,2 hPa 0,0 l/m 0 min 0 min 0 W/m 0,0 km/h (0 Bft) 100,00 %
21.12.2022 22:48 7,7 C 6,7 C 5,0 C 97 % 1007,2 hPa 0,0 l/m 0 min 0 min 0 W/m 6,4 km/h (2 Bft) 93,62 %
21.12.2022 22:50 7,7 C 7,2 C 5,0 C 97 % 1007,2 hPa 0,0 l/m 0 min 0 min 0 W/m 12,9 km/h (3 Bft) 95,74 %
21.12.2022 22:52 7,7 C 7,2 C 5,0 C 97 % 1007,1 hPa 0,0 l/m 0 min 0 min 0 W/m 6,4 km/h (2 Bft) 93,62 %
21.12.2022 22:54 7,7 C 7,2 C 5,0 C 97 % 1007,1 hPa 0,0 l/m 0 min 0 min 0 W/m 3,2 km/h (1 Bft) 95,74 %
21.12.2022 22:56 7,7 C 7,2 C 5,0 C 97 % 1007,1 hPa 0,0 l/m 0 min 0 min 0 W/m 6,4 km/h (2 Bft) 93,62 %
21.12.2022 22:58 7,7 C 7,2 C 5,0 C 97 % 1007,1 hPa 0,0 l/m 0 min 0 min 0 W/m 6,4 km/h (2 Bft) 93,62 %
21.12.2022 23:00 7,7 C 7,2 C 5,0 C 97 % 1007,1 hPa 0,0 l/m 0 min 0 min 0 W/m 3,2 km/h (1 Bft) 95,65 %
21.12.2022 23:02 7,7 C 7,2 C 5,0 C 97 % 1007,0 hPa 0,0 l/m 0 min 0 min 0 W/m 6,4 km/h (2 Bft) 95,74 %
21.12.2022 23:04 7,7 C 7,2 C 5,0 C 97 % 1007,0 hPa 0,0 l/m 0 min 0 min 0 W/m 6,4 km/h (2 Bft) 89,36 %
21.12.2022 23:06 7,7 C 7,2 C 5,0 C 97 % 1006,9 hPa 0,0 l/m 0 min 0 min 0 W/m 6,4 km/h (2 Bft) 93,62 %
21.12.2022 23:08 7,7 C 7,2 C 5,0 C 97 % 1006,9 hPa 0,0 l/m 0 min 0 min 0 W/m 6,4 km/h (2 Bft) 93,62 %
21.12.2022 23:10 7,7 C 7,2 C 5,0 C 97 % 1006,9 hPa 0,0 l/m 0 min 0 min 0 W/m 6,4 km/h (2 Bft) 93,62 %
21.12.2022 23:12 7,7 C 7,2 C 5,0 C 98 % 1006,8 hPa 0,0 l/m 0 min 0 min 0 W/m 6,4 km/h (2 Bft) 91,30 %
21.12.2022 23:14 7,7 C 7,2 C 5,0 C 98 % 1006,8 hPa 0,0 l/m 0 min 0 min 0 W/m 6,4 km/h (2 Bft) 89,36 %
21.12.2022 23:16 7,7 C 7,2 C 5,0 C 98 % 1006,8 hPa 0,0 l/m 0 min 0 min 0 W/m 6,4 km/h (2 Bft) 91,49 %
21.12.2022 23:18 7,7 C 7,2 C 5,0 C 98 % 1006,8 hPa 0,0 l/m 0 min 0 min 0 W/m 6,4 km/h (2 Bft) 89,36 %
21.12.2022 23:20 7,7 C 7,2 C 5,0 C 98 % 1006,7 hPa 0,0 l/m 0 min 0 min 0 W/m 6,4 km/h (2 Bft) 97,14 %
21.12.2022 23:22 7,7 C 7,2 C 5,0 C 98 % 1006,7 hPa 0,0 l/m 0 min 2 min 0 W/m 6,4 km/h (2 Bft) 95,74 %
21.12.2022 23:24 7,7 C 7,2 C 5,0 C 98 % 1006,7 hPa 0,0 l/m 0 min 0 min 0 W/m 3,2 km/h (1 Bft) 94,55 %
21.12.2022 23:26 7,8 C 7,2 C 5,0 C 98 % 1006,6 hPa 0,0 l/m 0 min 0 min 0 W/m 6,4 km/h (2 Bft) 97,83 %
21.12.2022 23:28 7,8 C 7,2 C 5,0 C 98 % 1006,7 hPa 0,2 l/m 0 min 0 min 0 W/m 3,2 km/h (1 Bft) 93,62 %
21.12.2022 23:30 7,8 C 7,2 C 5,0 C 98 % 1006,6 hPa 0,0 l/m 0 min 0 min 0 W/m 6,4 km/h (2 Bft) 95,74 %
21.12.2022 23:32 7,8 C 7,2 C 5,0 C 98 % 1006,6 hPa 0,0 l/m 0 min 2 min 0 W/m 12,9 km/h (3 Bft) 95,74 %
21.12.2022 23:34 7,8 C 7,2 C 5,0 C 98 % 1006,6 hPa 0,0 l/m 0 min 0 min 0 W/m 6,4 km/h (2 Bft) 93,62 %
21.12.2022 23:36 7,8 C 7,2 C 5,0 C 98 % 1006,5 hPa 0,0 l/m 0 min 0 min 0 W/m 3,2 km/h (1 Bft) 95,74 %
21.12.2022 23:38 7,8 C 7,2 C 5,0 C 98 % 1006,5 hPa 0,0 l/m 0 min 0 min 0 W/m 3,2 km/h (1 Bft) 100,00 %
21.12.2022 23:40 7,8 C 7,2 C 5,0 C 98 % 1006,5 hPa 0,0 l/m 0 min 0 min 0 W/m 6,4 km/h (2 Bft) 100,00 %
21.12.2022 23:42 7,8 C 7,2 C 5,0 C 98 % 1006,5 hPa 0,0 l/m 0 min 0 min 0 W/m 3,2 km/h (1 Bft) 97,87 %
21.12.2022 23:44 7,8 C 7,2 C 5,0 C 98 % 1006,5 hPa 0,0 l/m 0 min 0 min 0 W/m 6,4 km/h (2 Bft) 97,87 %
21.12.2022 23:46 7,9 C 7,2 C 5,6 C 98 % 1006,5 hPa 0,0 l/m 0 min 0 min 0 W/m 6,4 km/h (2 Bft) 97,87 %
21.12.2022 23:48 7,9 C 7,2 C 5,6 C 98 % 1006,5 hPa 0,0 l/m 0 min 0 min 0 W/m 6,4 km/h (2 Bft) 100,00 %
21.12.2022 23:50 7,9 C 7,2 C 5,6 C 98 % 1006,4 hPa 0,0 l/m 0 min 0 min 0 W/m 6,4 km/h (2 Bft) 100,00 %
21.12.2022 23:52 7,9 C 7,2 C 5,6 C 98 % 1006,4 hPa 0,0 l/m 0 min 0 min 0 W/m 3,2 km/h (1 Bft) 100,00 %
21.12.2022 23:54 7,9 C 7,2 C 5,6 C 98 % 1006,5 hPa 0,0 l/m 0 min 0 min 0 W/m 3,2 km/h (1 Bft) 100,00 %
21.12.2022 23:56 8,0 C 7,2 C 5,6 C 98 % 1006,5 hPa 0,0 l/m 0 min 0 min 0 W/m 3,2 km/h (1 Bft) 95,74 %
21.12.2022 23:58 8,0 C 7,2 C 5,6 C 98 % 1006,4 hPa 0,0 l/m 0 min 0 min 0 W/m 6,4 km/h (2 Bft) 100,00 %
_ Min-Zeit 20:54 19:52 17:46 16:34 23:50 - - - - 00:00 02:54
Minimum _ 7,4 C 6,7 C 4,4 C 91 % 1006,4 hPa - - - - 0,0 km/h (0 Bft) 42,86 %
_ Max-Zeit 00:00 12:40 00:08 04:18 11:06 03:54 10:52 00:00 10:52 13:44 00:42
Maximum _ 9,5 C 9,4 C 6,7 C 100 % 1012,0 hPa 0,2 l/m 2 min 2 min 171 W/m 29,0 km/h
S (5 Bft)
100,00 %
Durchschnitt _ 8,5 C 7,9 C 5,8 C 97 % 1010,3 hPa #4,4 l/m #14 min. #3:40 h 67 W/m 5,4 km/h (1 Bft) 97,15 %
© 2022 W. Hausmann